<?xml version="1.0" encoding="UTF-8" standalone="no" ?>
<gpx xmlns="http://www.topografix.com/GPX/1/1" xmlns:xsi="http://www.w3.org/2001/XMLSchema-instance" xsi:schemaLocation="http://www.topografix.com/GPX/1/1 http://www.topografix.com/GPX/1/1/gpx.xsd" version="1.1" creator="VisuGPX - https://www.visugpx.com">
  <metadata>
    <name>Sainte Victoire </name>
    <desc><![CDATA[grp_trc:[nouvelles]]]></desc>
  </metadata>
  <trk>
    <name><![CDATA[7 août 2022 à 15:43:42]]></name>
    <cmt><![CDATA[7 août 2022 à 15:43:42]]></cmt>
    <trkseg>
      <trkpt lat="45.4714" lon="6.41312">
        <ele>1366</ele>
        <time>2022-08-07T13:43:43Z</time>
      </trkpt>
      <trkpt lat="45.4714" lon="6.4131">
        <ele>1366</ele>
        <time>2022-08-07T13:43:44Z</time>
      </trkpt>
      <trkpt lat="45.47138" lon="6.41303">
        <ele>1366</ele>
        <time>2022-08-07T13:43:51Z</time>
      </trkpt>
      <trkpt lat="45.47137" lon="6.41301">
        <ele>1366</ele>
        <time>2022-08-07T13:43:52Z</time>
      </trkpt>
      <trkpt lat="45.47133" lon="6.41296">
        <ele>1367</ele>
        <time>2022-08-07T13:43:58Z</time>
      </trkpt>
      <trkpt lat="45.47131" lon="6.41291">
        <ele>1367</ele>
        <time>2022-08-07T13:44:02Z</time>
      </trkpt>
      <trkpt lat="45.47127" lon="6.41287">
        <ele>1367</ele>
        <time>2022-08-07T13:44:06Z</time>
      </trkpt>
      <trkpt lat="45.47121" lon="6.41278">
        <ele>1368</ele>
        <time>2022-08-07T13:44:13Z</time>
      </trkpt>
      <trkpt lat="45.47119" lon="6.41272">
        <ele>1368</ele>
        <time>2022-08-07T13:44:17Z</time>
      </trkpt>
      <trkpt lat="45.47113" lon="6.41263">
        <ele>1369</ele>
        <time>2022-08-07T13:44:25Z</time>
      </trkpt>
      <trkpt lat="45.47109" lon="6.41257">
        <ele>1369</ele>
        <time>2022-08-07T13:44:31Z</time>
      </trkpt>
      <trkpt lat="45.47105" lon="6.41251">
        <ele>1370</ele>
        <time>2022-08-07T13:44:37Z</time>
      </trkpt>
      <trkpt lat="45.47104" lon="6.41239">
        <ele>1371</ele>
        <time>2022-08-07T13:44:45Z</time>
      </trkpt>
      <trkpt lat="45.471" lon="6.41231">
        <ele>1372</ele>
        <time>2022-08-07T13:44:53Z</time>
      </trkpt>
      <trkpt lat="45.47096" lon="6.41229">
        <ele>1372</ele>
        <time>2022-08-07T13:44:56Z</time>
      </trkpt>
      <trkpt lat="45.47093" lon="6.41225">
        <ele>1373</ele>
        <time>2022-08-07T13:45:00Z</time>
      </trkpt>
      <trkpt lat="45.47088" lon="6.41225">
        <ele>1374</ele>
        <time>2022-08-07T13:45:06Z</time>
      </trkpt>
      <trkpt lat="45.47082" lon="6.41222">
        <ele>1375</ele>
        <time>2022-08-07T13:45:12Z</time>
      </trkpt>
      <trkpt lat="45.47075" lon="6.41214">
        <ele>1375</ele>
        <time>2022-08-07T13:45:21Z</time>
      </trkpt>
      <trkpt lat="45.47071" lon="6.41212">
        <ele>1376</ele>
        <time>2022-08-07T13:45:29Z</time>
      </trkpt>
      <trkpt lat="45.47065" lon="6.41204">
        <ele>1377</ele>
        <time>2022-08-07T13:45:41Z</time>
      </trkpt>
      <trkpt lat="45.47059" lon="6.41201">
        <ele>1377</ele>
        <time>2022-08-07T13:45:49Z</time>
      </trkpt>
      <trkpt lat="45.47055" lon="6.41189">
        <ele>1377</ele>
        <time>2022-08-07T13:46:02Z</time>
      </trkpt>
      <trkpt lat="45.47051" lon="6.41186">
        <ele>1378</ele>
        <time>2022-08-07T13:46:07Z</time>
      </trkpt>
      <trkpt lat="45.47027" lon="6.41154">
        <ele>1377</ele>
        <time>2022-08-07T13:46:41Z</time>
      </trkpt>
      <trkpt lat="45.47015" lon="6.4114">
        <ele>1376</ele>
        <time>2022-08-07T13:46:57Z</time>
      </trkpt>
      <trkpt lat="45.47007" lon="6.41132">
        <ele>1376</ele>
        <time>2022-08-07T13:47:06Z</time>
      </trkpt>
      <trkpt lat="45.46997" lon="6.41119">
        <ele>1375</ele>
        <time>2022-08-07T13:47:18Z</time>
      </trkpt>
      <trkpt lat="45.46992" lon="6.41115">
        <ele>1375</ele>
        <time>2022-08-07T13:47:22Z</time>
      </trkpt>
      <trkpt lat="45.46987" lon="6.41108">
        <ele>1373</ele>
        <time>2022-08-07T13:47:30Z</time>
      </trkpt>
      <trkpt lat="45.46984" lon="6.41102">
        <ele>1373</ele>
        <time>2022-08-07T13:47:34Z</time>
      </trkpt>
      <trkpt lat="45.46982" lon="6.41097">
        <ele>1373</ele>
        <time>2022-08-07T13:47:38Z</time>
      </trkpt>
      <trkpt lat="45.46981" lon="6.4109">
        <ele>1373</ele>
        <time>2022-08-07T13:47:43Z</time>
      </trkpt>
      <trkpt lat="45.4698" lon="6.41084">
        <ele>1373</ele>
        <time>2022-08-07T13:47:47Z</time>
      </trkpt>
      <trkpt lat="45.46974" lon="6.41071">
        <ele>1374</ele>
        <time>2022-08-07T13:47:59Z</time>
      </trkpt>
      <trkpt lat="45.46967" lon="6.41067">
        <ele>1374</ele>
        <time>2022-08-07T13:48:06Z</time>
      </trkpt>
      <trkpt lat="45.46959" lon="6.41065">
        <ele>1374</ele>
        <time>2022-08-07T13:48:13Z</time>
      </trkpt>
      <trkpt lat="45.46954" lon="6.41065">
        <ele>1374</ele>
        <time>2022-08-07T13:48:17Z</time>
      </trkpt>
      <trkpt lat="45.46949" lon="6.41064">
        <ele>1374</ele>
        <time>2022-08-07T13:48:21Z</time>
      </trkpt>
      <trkpt lat="45.46943" lon="6.4106">
        <ele>1375</ele>
        <time>2022-08-07T13:48:29Z</time>
      </trkpt>
      <trkpt lat="45.4694" lon="6.41055">
        <ele>1375</ele>
        <time>2022-08-07T13:48:33Z</time>
      </trkpt>
      <trkpt lat="45.46937" lon="6.4105">
        <ele>1375</ele>
        <time>2022-08-07T13:48:38Z</time>
      </trkpt>
      <trkpt lat="45.46934" lon="6.41033">
        <ele>1375</ele>
        <time>2022-08-07T13:48:51Z</time>
      </trkpt>
      <trkpt lat="45.46924" lon="6.41017">
        <ele>1378</ele>
        <time>2022-08-07T13:49:09Z</time>
      </trkpt>
      <trkpt lat="45.46921" lon="6.41012">
        <ele>1378</ele>
        <time>2022-08-07T13:49:14Z</time>
      </trkpt>
      <trkpt lat="45.46917" lon="6.41007">
        <ele>1378</ele>
        <time>2022-08-07T13:49:19Z</time>
      </trkpt>
      <trkpt lat="45.46913" lon="6.40997">
        <ele>1377</ele>
        <time>2022-08-07T13:49:27Z</time>
      </trkpt>
      <trkpt lat="45.46891" lon="6.40953">
        <ele>1375</ele>
        <time>2022-08-07T13:49:59Z</time>
      </trkpt>
      <trkpt lat="45.46882" lon="6.40944">
        <ele>1374</ele>
        <time>2022-08-07T13:50:08Z</time>
      </trkpt>
      <trkpt lat="45.46877" lon="6.40934">
        <ele>1374</ele>
        <time>2022-08-07T13:50:16Z</time>
      </trkpt>
      <trkpt lat="45.4687" lon="6.40924">
        <ele>1375</ele>
        <time>2022-08-07T13:50:25Z</time>
      </trkpt>
      <trkpt lat="45.46849" lon="6.4091">
        <ele>1378</ele>
        <time>2022-08-07T13:50:48Z</time>
      </trkpt>
      <trkpt lat="45.46838" lon="6.40907">
        <ele>1380</ele>
        <time>2022-08-07T13:51:01Z</time>
      </trkpt>
      <trkpt lat="45.46829" lon="6.40902">
        <ele>1382</ele>
        <time>2022-08-07T13:51:12Z</time>
      </trkpt>
      <trkpt lat="45.46823" lon="6.40896">
        <ele>1384</ele>
        <time>2022-08-07T13:51:44Z</time>
      </trkpt>
      <trkpt lat="45.46815" lon="6.40879">
        <ele>1387</ele>
        <time>2022-08-07T13:52:18Z</time>
      </trkpt>
      <trkpt lat="45.46811" lon="6.40869">
        <ele>1388</ele>
        <time>2022-08-07T13:52:34Z</time>
      </trkpt>
      <trkpt lat="45.46805" lon="6.40856">
        <ele>1390</ele>
        <time>2022-08-07T13:52:46Z</time>
      </trkpt>
      <trkpt lat="45.46803" lon="6.4085">
        <ele>1390</ele>
        <time>2022-08-07T13:52:53Z</time>
      </trkpt>
      <trkpt lat="45.468" lon="6.40841">
        <ele>1391</ele>
        <time>2022-08-07T13:53:01Z</time>
      </trkpt>
      <trkpt lat="45.468" lon="6.40834">
        <ele>1392</ele>
        <time>2022-08-07T13:53:05Z</time>
      </trkpt>
      <trkpt lat="45.468" lon="6.40812">
        <ele>1393</ele>
        <time>2022-08-07T13:53:17Z</time>
      </trkpt>
      <trkpt lat="45.46797" lon="6.40792">
        <ele>1393</ele>
        <time>2022-08-07T13:53:29Z</time>
      </trkpt>
      <trkpt lat="45.46788" lon="6.40777">
        <ele>1393</ele>
        <time>2022-08-07T13:53:41Z</time>
      </trkpt>
      <trkpt lat="45.46786" lon="6.40762">
        <ele>1393</ele>
        <time>2022-08-07T13:53:49Z</time>
      </trkpt>
      <trkpt lat="45.46785" lon="6.40748">
        <ele>1393</ele>
        <time>2022-08-07T13:53:57Z</time>
      </trkpt>
      <trkpt lat="45.46783" lon="6.40737">
        <ele>1392</ele>
        <time>2022-08-07T13:54:07Z</time>
      </trkpt>
      <trkpt lat="45.46782" lon="6.40719">
        <ele>1393</ele>
        <time>2022-08-07T13:54:18Z</time>
      </trkpt>
      <trkpt lat="45.46783" lon="6.40713">
        <ele>1393</ele>
        <time>2022-08-07T13:54:21Z</time>
      </trkpt>
      <trkpt lat="45.4678" lon="6.40702">
        <ele>1392</ele>
        <time>2022-08-07T13:54:30Z</time>
      </trkpt>
      <trkpt lat="45.4678" lon="6.40693">
        <ele>1392</ele>
        <time>2022-08-07T13:54:36Z</time>
      </trkpt>
      <trkpt lat="45.46776" lon="6.40688">
        <ele>1392</ele>
        <time>2022-08-07T13:54:39Z</time>
      </trkpt>
      <trkpt lat="45.46774" lon="6.40682">
        <ele>1392</ele>
        <time>2022-08-07T13:54:43Z</time>
      </trkpt>
      <trkpt lat="45.46772" lon="6.40662">
        <ele>1392</ele>
        <time>2022-08-07T13:54:56Z</time>
      </trkpt>
      <trkpt lat="45.46767" lon="6.40655">
        <ele>1391</ele>
        <time>2022-08-07T13:55:05Z</time>
      </trkpt>
      <trkpt lat="45.46763" lon="6.40651">
        <ele>1391</ele>
        <time>2022-08-07T13:55:11Z</time>
      </trkpt>
      <trkpt lat="45.46757" lon="6.40648">
        <ele>1391</ele>
        <time>2022-08-07T13:55:18Z</time>
      </trkpt>
      <trkpt lat="45.46735" lon="6.40647">
        <ele>1392</ele>
        <time>2022-08-07T13:55:46Z</time>
      </trkpt>
      <trkpt lat="45.46726" lon="6.40656">
        <ele>1392</ele>
        <time>2022-08-07T13:55:58Z</time>
      </trkpt>
      <trkpt lat="45.46719" lon="6.40669">
        <ele>1393</ele>
        <time>2022-08-07T13:56:12Z</time>
      </trkpt>
      <trkpt lat="45.46714" lon="6.4069">
        <ele>1396</ele>
        <time>2022-08-07T13:56:29Z</time>
      </trkpt>
      <trkpt lat="45.4671" lon="6.40694">
        <ele>1397</ele>
        <time>2022-08-07T13:56:45Z</time>
      </trkpt>
      <trkpt lat="45.46707" lon="6.407">
        <ele>1398</ele>
        <time>2022-08-07T13:56:52Z</time>
      </trkpt>
      <trkpt lat="45.46699" lon="6.40699">
        <ele>1399</ele>
        <time>2022-08-07T13:57:02Z</time>
      </trkpt>
      <trkpt lat="45.46695" lon="6.40695">
        <ele>1400</ele>
        <time>2022-08-07T13:57:06Z</time>
      </trkpt>
      <trkpt lat="45.46685" lon="6.40693">
        <ele>1401</ele>
        <time>2022-08-07T13:57:17Z</time>
      </trkpt>
      <trkpt lat="45.46676" lon="6.4069">
        <ele>1401</ele>
        <time>2022-08-07T13:57:25Z</time>
      </trkpt>
      <trkpt lat="45.46671" lon="6.40691">
        <ele>1402</ele>
        <time>2022-08-07T13:57:32Z</time>
      </trkpt>
      <trkpt lat="45.46667" lon="6.40692">
        <ele>1402</ele>
        <time>2022-08-07T13:57:37Z</time>
      </trkpt>
      <trkpt lat="45.4666" lon="6.40694">
        <ele>1403</ele>
        <time>2022-08-07T13:57:47Z</time>
      </trkpt>
      <trkpt lat="45.46656" lon="6.40694">
        <ele>1404</ele>
        <time>2022-08-07T13:57:52Z</time>
      </trkpt>
      <trkpt lat="45.46651" lon="6.40692">
        <ele>1406</ele>
        <time>2022-08-07T13:58:02Z</time>
      </trkpt>
      <trkpt lat="45.46648" lon="6.40688">
        <ele>1407</ele>
        <time>2022-08-07T13:59:23Z</time>
      </trkpt>
      <trkpt lat="45.46642" lon="6.40686">
        <ele>1407</ele>
        <time>2022-08-07T13:59:28Z</time>
      </trkpt>
      <trkpt lat="45.46626" lon="6.40679">
        <ele>1409</ele>
        <time>2022-08-07T13:59:48Z</time>
      </trkpt>
      <trkpt lat="45.46601" lon="6.40665">
        <ele>1413</ele>
        <time>2022-08-07T14:00:18Z</time>
      </trkpt>
      <trkpt lat="45.46574" lon="6.40648">
        <ele>1418</ele>
        <time>2022-08-07T14:00:49Z</time>
      </trkpt>
      <trkpt lat="45.46573" lon="6.40647">
        <ele>1419</ele>
        <time>2022-08-07T14:01:23Z</time>
      </trkpt>
      <trkpt lat="45.46568" lon="6.40645">
        <ele>1419</ele>
        <time>2022-08-07T14:01:30Z</time>
      </trkpt>
      <trkpt lat="45.46537" lon="6.40638">
        <ele>1424</ele>
        <time>2022-08-07T14:02:28Z</time>
      </trkpt>
      <trkpt lat="45.46531" lon="6.40635">
        <ele>1425</ele>
        <time>2022-08-07T14:02:39Z</time>
      </trkpt>
      <trkpt lat="45.4651" lon="6.40619">
        <ele>1429</ele>
        <time>2022-08-07T14:03:13Z</time>
      </trkpt>
      <trkpt lat="45.46487" lon="6.40603">
        <ele>1433</ele>
        <time>2022-08-07T14:03:48Z</time>
      </trkpt>
      <trkpt lat="45.46464" lon="6.40592">
        <ele>1437</ele>
        <time>2022-08-07T14:04:19Z</time>
      </trkpt>
      <trkpt lat="45.46447" lon="6.40583">
        <ele>1440</ele>
        <time>2022-08-07T14:04:43Z</time>
      </trkpt>
      <trkpt lat="45.46427" lon="6.4056">
        <ele>1446</ele>
        <time>2022-08-07T14:05:22Z</time>
      </trkpt>
      <trkpt lat="45.46427" lon="6.40548">
        <ele>1446</ele>
        <time>2022-08-07T14:05:33Z</time>
      </trkpt>
      <trkpt lat="45.46422" lon="6.40541">
        <ele>1446</ele>
        <time>2022-08-07T14:05:43Z</time>
      </trkpt>
      <trkpt lat="45.46422" lon="6.40543">
        <ele>1446</ele>
        <time>2022-08-07T14:05:58Z</time>
      </trkpt>
      <trkpt lat="45.46421" lon="6.40543">
        <ele>1446</ele>
        <time>2022-08-07T14:06:32Z</time>
      </trkpt>
      <trkpt lat="45.46418" lon="6.40536">
        <ele>1446</ele>
        <time>2022-08-07T14:06:43Z</time>
      </trkpt>
      <trkpt lat="45.46414" lon="6.40534">
        <ele>1446</ele>
        <time>2022-08-07T14:06:47Z</time>
      </trkpt>
      <trkpt lat="45.46411" lon="6.40526">
        <ele>1446</ele>
        <time>2022-08-07T14:06:54Z</time>
      </trkpt>
      <trkpt lat="45.4641" lon="6.4052">
        <ele>1446</ele>
        <time>2022-08-07T14:06:58Z</time>
      </trkpt>
      <trkpt lat="45.46405" lon="6.40514">
        <ele>1446</ele>
        <time>2022-08-07T14:07:03Z</time>
      </trkpt>
      <trkpt lat="45.46397" lon="6.40508">
        <ele>1445</ele>
        <time>2022-08-07T14:07:12Z</time>
      </trkpt>
      <trkpt lat="45.4639" lon="6.40507">
        <ele>1445</ele>
        <time>2022-08-07T14:07:18Z</time>
      </trkpt>
      <trkpt lat="45.4638" lon="6.40511">
        <ele>1445</ele>
        <time>2022-08-07T14:07:28Z</time>
      </trkpt>
      <trkpt lat="45.46376" lon="6.40514">
        <ele>1445</ele>
        <time>2022-08-07T14:07:32Z</time>
      </trkpt>
      <trkpt lat="45.46374" lon="6.40519">
        <ele>1444</ele>
        <time>2022-08-07T14:07:45Z</time>
      </trkpt>
      <trkpt lat="45.4637" lon="6.40522">
        <ele>1444</ele>
        <time>2022-08-07T14:07:50Z</time>
      </trkpt>
      <trkpt lat="45.46362" lon="6.40525">
        <ele>1444</ele>
        <time>2022-08-07T14:09:26Z</time>
      </trkpt>
      <trkpt lat="45.46356" lon="6.40526">
        <ele>1444</ele>
        <time>2022-08-07T14:09:31Z</time>
      </trkpt>
      <trkpt lat="45.46352" lon="6.40527">
        <ele>1443</ele>
        <time>2022-08-07T14:09:51Z</time>
      </trkpt>
      <trkpt lat="45.46347" lon="6.40525">
        <ele>1443</ele>
        <time>2022-08-07T14:09:55Z</time>
      </trkpt>
      <trkpt lat="45.46342" lon="6.40525">
        <ele>1443</ele>
        <time>2022-08-07T14:09:59Z</time>
      </trkpt>
      <trkpt lat="45.46325" lon="6.40517">
        <ele>1442</ele>
        <time>2022-08-07T14:10:19Z</time>
      </trkpt>
      <trkpt lat="45.46322" lon="6.40511">
        <ele>1442</ele>
        <time>2022-08-07T14:10:26Z</time>
      </trkpt>
      <trkpt lat="45.46319" lon="6.40503">
        <ele>1442</ele>
        <time>2022-08-07T14:10:34Z</time>
      </trkpt>
      <trkpt lat="45.46312" lon="6.40495">
        <ele>1442</ele>
        <time>2022-08-07T14:10:41Z</time>
      </trkpt>
      <trkpt lat="45.46277" lon="6.40489">
        <ele>1441</ele>
        <time>2022-08-07T14:11:10Z</time>
      </trkpt>
      <trkpt lat="45.46267" lon="6.40486">
        <ele>1441</ele>
        <time>2022-08-07T14:11:19Z</time>
      </trkpt>
      <trkpt lat="45.46261" lon="6.40485">
        <ele>1441</ele>
        <time>2022-08-07T14:11:25Z</time>
      </trkpt>
      <trkpt lat="45.46256" lon="6.40485">
        <ele>1441</ele>
        <time>2022-08-07T14:11:43Z</time>
      </trkpt>
      <trkpt lat="45.46251" lon="6.40484">
        <ele>1441</ele>
        <time>2022-08-07T14:11:48Z</time>
      </trkpt>
      <trkpt lat="45.46244" lon="6.40486">
        <ele>1441</ele>
        <time>2022-08-07T14:11:54Z</time>
      </trkpt>
      <trkpt lat="45.46236" lon="6.40483">
        <ele>1441</ele>
        <time>2022-08-07T14:12:02Z</time>
      </trkpt>
      <trkpt lat="45.4623" lon="6.40482">
        <ele>1441</ele>
        <time>2022-08-07T14:12:28Z</time>
      </trkpt>
      <trkpt lat="45.4622" lon="6.4048">
        <ele>1440</ele>
        <time>2022-08-07T14:12:36Z</time>
      </trkpt>
      <trkpt lat="45.46215" lon="6.40482">
        <ele>1440</ele>
        <time>2022-08-07T14:12:41Z</time>
      </trkpt>
      <trkpt lat="45.46211" lon="6.40482">
        <ele>1440</ele>
        <time>2022-08-07T14:12:45Z</time>
      </trkpt>
      <trkpt lat="45.46207" lon="6.40482">
        <ele>1440</ele>
        <time>2022-08-07T14:12:49Z</time>
      </trkpt>
      <trkpt lat="45.462" lon="6.40481">
        <ele>1440</ele>
        <time>2022-08-07T14:12:56Z</time>
      </trkpt>
      <trkpt lat="45.46188" lon="6.40474">
        <ele>1439</ele>
        <time>2022-08-07T14:13:08Z</time>
      </trkpt>
      <trkpt lat="45.46184" lon="6.40473">
        <ele>1439</ele>
        <time>2022-08-07T14:13:13Z</time>
      </trkpt>
      <trkpt lat="45.4618" lon="6.4047">
        <ele>1439</ele>
        <time>2022-08-07T14:13:17Z</time>
      </trkpt>
      <trkpt lat="45.4616" lon="6.40462">
        <ele>1438</ele>
        <time>2022-08-07T14:13:37Z</time>
      </trkpt>
      <trkpt lat="45.46143" lon="6.40455">
        <ele>1438</ele>
        <time>2022-08-07T14:13:59Z</time>
      </trkpt>
      <trkpt lat="45.46132" lon="6.40451">
        <ele>1437</ele>
        <time>2022-08-07T14:14:09Z</time>
      </trkpt>
      <trkpt lat="45.46137" lon="6.40456">
        <ele>1437</ele>
        <time>2022-08-07T14:14:21Z</time>
      </trkpt>
      <trkpt lat="45.46141" lon="6.40457">
        <ele>1437</ele>
        <time>2022-08-07T14:14:25Z</time>
      </trkpt>
      <trkpt lat="45.46137" lon="6.40454">
        <ele>1438</ele>
        <time>2022-08-07T14:15:59Z</time>
      </trkpt>
      <trkpt lat="45.46128" lon="6.40448">
        <ele>1438</ele>
        <time>2022-08-07T14:16:09Z</time>
      </trkpt>
      <trkpt lat="45.46121" lon="6.40449">
        <ele>1438</ele>
        <time>2022-08-07T14:16:11Z</time>
      </trkpt>
      <trkpt lat="45.46117" lon="6.40451">
        <ele>1438</ele>
        <time>2022-08-07T14:16:14Z</time>
      </trkpt>
      <trkpt lat="45.46081" lon="6.40451">
        <ele>1437</ele>
        <time>2022-08-07T14:16:31Z</time>
      </trkpt>
      <trkpt lat="45.46064" lon="6.40438">
        <ele>1435</ele>
        <time>2022-08-07T14:17:05Z</time>
      </trkpt>
      <trkpt lat="45.46058" lon="6.40437">
        <ele>1435</ele>
        <time>2022-08-07T14:18:13Z</time>
      </trkpt>
      <trkpt lat="45.46049" lon="6.40421">
        <ele>1434</ele>
        <time>2022-08-07T14:18:26Z</time>
      </trkpt>
      <trkpt lat="45.46033" lon="6.40389">
        <ele>1433</ele>
        <time>2022-08-07T14:18:50Z</time>
      </trkpt>
      <trkpt lat="45.46029" lon="6.40383">
        <ele>1432</ele>
        <time>2022-08-07T14:18:54Z</time>
      </trkpt>
      <trkpt lat="45.46016" lon="6.40373">
        <ele>1432</ele>
        <time>2022-08-07T14:19:06Z</time>
      </trkpt>
      <trkpt lat="45.46007" lon="6.40368">
        <ele>1432</ele>
        <time>2022-08-07T14:19:14Z</time>
      </trkpt>
      <trkpt lat="45.46003" lon="6.40364">
        <ele>1431</ele>
        <time>2022-08-07T14:19:19Z</time>
      </trkpt>
      <trkpt lat="45.45999" lon="6.40363">
        <ele>1431</ele>
        <time>2022-08-07T14:19:22Z</time>
      </trkpt>
      <trkpt lat="45.45984" lon="6.40353">
        <ele>1431</ele>
        <time>2022-08-07T14:19:34Z</time>
      </trkpt>
      <trkpt lat="45.4597" lon="6.40345">
        <ele>1431</ele>
        <time>2022-08-07T14:19:48Z</time>
      </trkpt>
      <trkpt lat="45.45965" lon="6.40341">
        <ele>1431</ele>
        <time>2022-08-07T14:19:52Z</time>
      </trkpt>
      <trkpt lat="45.45951" lon="6.40334">
        <ele>1430</ele>
        <time>2022-08-07T14:20:03Z</time>
      </trkpt>
      <trkpt lat="45.45924" lon="6.4033">
        <ele>1429</ele>
        <time>2022-08-07T14:20:24Z</time>
      </trkpt>
      <trkpt lat="45.45912" lon="6.40323">
        <ele>1429</ele>
        <time>2022-08-07T14:20:36Z</time>
      </trkpt>
      <trkpt lat="45.45877" lon="6.40297">
        <ele>1427</ele>
        <time>2022-08-07T14:21:09Z</time>
      </trkpt>
      <trkpt lat="45.45862" lon="6.40284">
        <ele>1427</ele>
        <time>2022-08-07T14:21:25Z</time>
      </trkpt>
      <trkpt lat="45.45857" lon="6.40285">
        <ele>1426</ele>
        <time>2022-08-07T14:21:29Z</time>
      </trkpt>
      <trkpt lat="45.45855" lon="6.40291">
        <ele>1425</ele>
        <time>2022-08-07T14:22:04Z</time>
      </trkpt>
      <trkpt lat="45.45858" lon="6.40288">
        <ele>1425</ele>
        <time>2022-08-07T14:23:35Z</time>
      </trkpt>
      <trkpt lat="45.45858" lon="6.40282">
        <ele>1426</ele>
        <time>2022-08-07T14:23:54Z</time>
      </trkpt>
      <trkpt lat="45.45856" lon="6.40272">
        <ele>1426</ele>
        <time>2022-08-07T14:24:14Z</time>
      </trkpt>
      <trkpt lat="45.45852" lon="6.40266">
        <ele>1428</ele>
        <time>2022-08-07T14:24:24Z</time>
      </trkpt>
      <trkpt lat="45.45848" lon="6.40257">
        <ele>1428</ele>
        <time>2022-08-07T14:24:33Z</time>
      </trkpt>
      <trkpt lat="45.45837" lon="6.40251">
        <ele>1430</ele>
        <time>2022-08-07T14:24:45Z</time>
      </trkpt>
      <trkpt lat="45.45833" lon="6.40243">
        <ele>1431</ele>
        <time>2022-08-07T14:24:53Z</time>
      </trkpt>
      <trkpt lat="45.45828" lon="6.40239">
        <ele>1432</ele>
        <time>2022-08-07T14:24:59Z</time>
      </trkpt>
      <trkpt lat="45.45823" lon="6.40239">
        <ele>1432</ele>
        <time>2022-08-07T14:25:04Z</time>
      </trkpt>
      <trkpt lat="45.45818" lon="6.40237">
        <ele>1433</ele>
        <time>2022-08-07T14:25:16Z</time>
      </trkpt>
      <trkpt lat="45.45815" lon="6.40234">
        <ele>1433</ele>
        <time>2022-08-07T14:25:21Z</time>
      </trkpt>
      <trkpt lat="45.45809" lon="6.4023">
        <ele>1433</ele>
        <time>2022-08-07T14:25:30Z</time>
      </trkpt>
      <trkpt lat="45.45806" lon="6.40223">
        <ele>1434</ele>
        <time>2022-08-07T14:25:39Z</time>
      </trkpt>
      <trkpt lat="45.45805" lon="6.40215">
        <ele>1435</ele>
        <time>2022-08-07T14:25:47Z</time>
      </trkpt>
      <trkpt lat="45.45799" lon="6.40202">
        <ele>1437</ele>
        <time>2022-08-07T14:26:02Z</time>
      </trkpt>
      <trkpt lat="45.4579" lon="6.40176">
        <ele>1441</ele>
        <time>2022-08-07T14:26:32Z</time>
      </trkpt>
      <trkpt lat="45.45794" lon="6.40173">
        <ele>1442</ele>
        <time>2022-08-07T14:26:37Z</time>
      </trkpt>
      <trkpt lat="45.45791" lon="6.40167">
        <ele>1443</ele>
        <time>2022-08-07T14:26:44Z</time>
      </trkpt>
      <trkpt lat="45.45787" lon="6.40161">
        <ele>1444</ele>
        <time>2022-08-07T14:26:54Z</time>
      </trkpt>
      <trkpt lat="45.45784" lon="6.40157">
        <ele>1445</ele>
        <time>2022-08-07T14:27:09Z</time>
      </trkpt>
      <trkpt lat="45.4578" lon="6.40151">
        <ele>1445</ele>
        <time>2022-08-07T14:27:34Z</time>
      </trkpt>
      <trkpt lat="45.45779" lon="6.40144">
        <ele>1447</ele>
        <time>2022-08-07T14:27:45Z</time>
      </trkpt>
      <trkpt lat="45.45774" lon="6.40139">
        <ele>1449</ele>
        <time>2022-08-07T14:27:56Z</time>
      </trkpt>
      <trkpt lat="45.45771" lon="6.40132">
        <ele>1451</ele>
        <time>2022-08-07T14:28:12Z</time>
      </trkpt>
      <trkpt lat="45.4577" lon="6.40124">
        <ele>1453</ele>
        <time>2022-08-07T14:28:22Z</time>
      </trkpt>
      <trkpt lat="45.45761" lon="6.40123">
        <ele>1454</ele>
        <time>2022-08-07T14:28:38Z</time>
      </trkpt>
      <trkpt lat="45.45756" lon="6.40119">
        <ele>1454</ele>
        <time>2022-08-07T14:28:46Z</time>
      </trkpt>
      <trkpt lat="45.45752" lon="6.40118">
        <ele>1455</ele>
        <time>2022-08-07T14:29:07Z</time>
      </trkpt>
      <trkpt lat="45.45747" lon="6.40121">
        <ele>1455</ele>
        <time>2022-08-07T14:29:12Z</time>
      </trkpt>
      <trkpt lat="45.45741" lon="6.40114">
        <ele>1457</ele>
        <time>2022-08-07T14:29:30Z</time>
      </trkpt>
      <trkpt lat="45.45744" lon="6.40113">
        <ele>1457</ele>
        <time>2022-08-07T14:30:25Z</time>
      </trkpt>
      <trkpt lat="45.45741" lon="6.40108">
        <ele>1457</ele>
        <time>2022-08-07T14:32:28Z</time>
      </trkpt>
      <trkpt lat="45.45741" lon="6.401">
        <ele>1455</ele>
        <time>2022-08-07T14:33:23Z</time>
      </trkpt>
      <trkpt lat="45.45739" lon="6.40093">
        <ele>1456</ele>
        <time>2022-08-07T14:33:33Z</time>
      </trkpt>
      <trkpt lat="45.45739" lon="6.40087">
        <ele>1457</ele>
        <time>2022-08-07T14:33:43Z</time>
      </trkpt>
      <trkpt lat="45.45745" lon="6.40082">
        <ele>1461</ele>
        <time>2022-08-07T14:34:14Z</time>
      </trkpt>
      <trkpt lat="45.45748" lon="6.40071">
        <ele>1465</ele>
        <time>2022-08-07T14:34:36Z</time>
      </trkpt>
      <trkpt lat="45.45752" lon="6.40069">
        <ele>1471</ele>
        <time>2022-08-07T14:35:14Z</time>
      </trkpt>
      <trkpt lat="45.45755" lon="6.4006">
        <ele>1477</ele>
        <time>2022-08-07T14:35:49Z</time>
      </trkpt>
      <trkpt lat="45.45762" lon="6.40053">
        <ele>1481</ele>
        <time>2022-08-07T14:36:16Z</time>
      </trkpt>
      <trkpt lat="45.45763" lon="6.40048">
        <ele>1484</ele>
        <time>2022-08-07T14:36:28Z</time>
      </trkpt>
      <trkpt lat="45.45761" lon="6.4004">
        <ele>1486</ele>
        <time>2022-08-07T14:36:38Z</time>
      </trkpt>
      <trkpt lat="45.45765" lon="6.40035">
        <ele>1490</ele>
        <time>2022-08-07T14:36:59Z</time>
      </trkpt>
      <trkpt lat="45.45765" lon="6.40026">
        <ele>1493</ele>
        <time>2022-08-07T14:37:11Z</time>
      </trkpt>
      <trkpt lat="45.45771" lon="6.40024">
        <ele>1497</ele>
        <time>2022-08-07T14:37:36Z</time>
      </trkpt>
      <trkpt lat="45.45776" lon="6.40022">
        <ele>1502</ele>
        <time>2022-08-07T14:37:51Z</time>
      </trkpt>
      <trkpt lat="45.45776" lon="6.40023">
        <ele>1505</ele>
        <time>2022-08-07T14:39:04Z</time>
      </trkpt>
      <trkpt lat="45.45771" lon="6.40024">
        <ele>1503</ele>
        <time>2022-08-07T14:39:14Z</time>
      </trkpt>
      <trkpt lat="45.45769" lon="6.40017">
        <ele>1500</ele>
        <time>2022-08-07T14:39:39Z</time>
      </trkpt>
      <trkpt lat="45.45765" lon="6.40019">
        <ele>1498</ele>
        <time>2022-08-07T14:39:49Z</time>
      </trkpt>
      <trkpt lat="45.45762" lon="6.40026">
        <ele>1495</ele>
        <time>2022-08-07T14:40:00Z</time>
      </trkpt>
      <trkpt lat="45.45761" lon="6.40033">
        <ele>1492</ele>
        <time>2022-08-07T14:40:10Z</time>
      </trkpt>
      <trkpt lat="45.45755" lon="6.40034">
        <ele>1488</ele>
        <time>2022-08-07T14:40:30Z</time>
      </trkpt>
      <trkpt lat="45.45759" lon="6.40042">
        <ele>1489</ele>
        <time>2022-08-07T14:40:57Z</time>
      </trkpt>
      <trkpt lat="45.4576" lon="6.40049">
        <ele>1487</ele>
        <time>2022-08-07T14:41:07Z</time>
      </trkpt>
      <trkpt lat="45.45751" lon="6.4006">
        <ele>1478</ele>
        <time>2022-08-07T14:41:52Z</time>
      </trkpt>
      <trkpt lat="45.45749" lon="6.40065">
        <ele>1474</ele>
        <time>2022-08-07T14:42:17Z</time>
      </trkpt>
      <trkpt lat="45.45744" lon="6.40066">
        <ele>1468</ele>
        <time>2022-08-07T14:42:46Z</time>
      </trkpt>
      <trkpt lat="45.45741" lon="6.40072">
        <ele>1467</ele>
        <time>2022-08-07T14:42:51Z</time>
      </trkpt>
      <trkpt lat="45.45738" lon="6.4008">
        <ele>1463</ele>
        <time>2022-08-07T14:43:10Z</time>
      </trkpt>
      <trkpt lat="45.45739" lon="6.40092">
        <ele>1461</ele>
        <time>2022-08-07T14:43:20Z</time>
      </trkpt>
      <trkpt lat="45.45742" lon="6.40105">
        <ele>1459</ele>
        <time>2022-08-07T14:43:28Z</time>
      </trkpt>
      <trkpt lat="45.4574" lon="6.40103">
        <ele>1458</ele>
        <time>2022-08-07T14:43:48Z</time>
      </trkpt>
      <trkpt lat="45.4574" lon="6.40096">
        <ele>1458</ele>
        <time>2022-08-07T14:43:53Z</time>
      </trkpt>
      <trkpt lat="45.4574" lon="6.4009">
        <ele>1459</ele>
        <time>2022-08-07T14:44:00Z</time>
      </trkpt>
      <trkpt lat="45.45741" lon="6.40079">
        <ele>1462</ele>
        <time>2022-08-07T14:44:15Z</time>
      </trkpt>
      <trkpt lat="45.45744" lon="6.40073">
        <ele>1466</ele>
        <time>2022-08-07T14:44:39Z</time>
      </trkpt>
      <trkpt lat="45.45749" lon="6.40076">
        <ele>1471</ele>
        <time>2022-08-07T14:45:06Z</time>
      </trkpt>
      <trkpt lat="45.45755" lon="6.40069">
        <ele>1473</ele>
        <time>2022-08-07T14:45:29Z</time>
      </trkpt>
      <trkpt lat="45.45756" lon="6.40062">
        <ele>1477</ele>
        <time>2022-08-07T14:45:48Z</time>
      </trkpt>
      <trkpt lat="45.45761" lon="6.40056">
        <ele>1483</ele>
        <time>2022-08-07T14:46:29Z</time>
      </trkpt>
      <trkpt lat="45.45764" lon="6.4005">
        <ele>1485</ele>
        <time>2022-08-07T14:46:41Z</time>
      </trkpt>
      <trkpt lat="45.45762" lon="6.40039">
        <ele>1490</ele>
        <time>2022-08-07T14:47:14Z</time>
      </trkpt>
      <trkpt lat="45.45763" lon="6.40033">
        <ele>1493</ele>
        <time>2022-08-07T14:47:29Z</time>
      </trkpt>
      <trkpt lat="45.45766" lon="6.40028">
        <ele>1495</ele>
        <time>2022-08-07T14:47:39Z</time>
      </trkpt>
      <trkpt lat="45.4577" lon="6.40026">
        <ele>1500</ele>
        <time>2022-08-07T14:48:09Z</time>
      </trkpt>
      <trkpt lat="45.45775" lon="6.40024">
        <ele>1504</ele>
        <time>2022-08-07T14:48:30Z</time>
      </trkpt>
      <trkpt lat="45.45778" lon="6.40017">
        <ele>1507</ele>
        <time>2022-08-07T14:48:41Z</time>
      </trkpt>
      <trkpt lat="45.45774" lon="6.40015">
        <ele>1508</ele>
        <time>2022-08-07T14:51:49Z</time>
      </trkpt>
      <trkpt lat="45.45758" lon="6.39994">
        <ele>1508</ele>
        <time>2022-08-07T14:51:59Z</time>
      </trkpt>
      <trkpt lat="45.45754" lon="6.39983">
        <ele>1507</ele>
        <time>2022-08-07T14:52:06Z</time>
      </trkpt>
      <trkpt lat="45.4575" lon="6.39981">
        <ele>1506</ele>
        <time>2022-08-07T14:52:14Z</time>
      </trkpt>
      <trkpt lat="45.45753" lon="6.39992">
        <ele>1505</ele>
        <time>2022-08-07T14:53:00Z</time>
      </trkpt>
      <trkpt lat="45.45758" lon="6.39998">
        <ele>1506</ele>
        <time>2022-08-07T14:53:11Z</time>
      </trkpt>
      <trkpt lat="45.45764" lon="6.40004">
        <ele>1506</ele>
        <time>2022-08-07T14:53:21Z</time>
      </trkpt>
      <trkpt lat="45.45767" lon="6.40009">
        <ele>1506</ele>
        <time>2022-08-07T14:53:25Z</time>
      </trkpt>
      <trkpt lat="45.45772" lon="6.40014">
        <ele>1506</ele>
        <time>2022-08-07T14:53:37Z</time>
      </trkpt>
      <trkpt lat="45.4577" lon="6.40012">
        <ele>1506</ele>
        <time>2022-08-07T14:54:12Z</time>
      </trkpt>
      <trkpt lat="45.45762" lon="6.40002">
        <ele>1506</ele>
        <time>2022-08-07T14:54:21Z</time>
      </trkpt>
      <trkpt lat="45.45755" lon="6.39992">
        <ele>1505</ele>
        <time>2022-08-07T14:54:29Z</time>
      </trkpt>
      <trkpt lat="45.45748" lon="6.39971">
        <ele>1504</ele>
        <time>2022-08-07T14:54:42Z</time>
      </trkpt>
      <trkpt lat="45.45747" lon="6.39964">
        <ele>1503</ele>
        <time>2022-08-07T14:54:47Z</time>
      </trkpt>
      <trkpt lat="45.45747" lon="6.39956">
        <ele>1504</ele>
        <time>2022-08-07T14:54:54Z</time>
      </trkpt>
      <trkpt lat="45.45746" lon="6.39949">
        <ele>1505</ele>
        <time>2022-08-07T14:54:59Z</time>
      </trkpt>
      <trkpt lat="45.45744" lon="6.39943">
        <ele>1505</ele>
        <time>2022-08-07T14:55:01Z</time>
      </trkpt>
      <trkpt lat="45.45741" lon="6.39938">
        <ele>1504</ele>
        <time>2022-08-07T14:55:05Z</time>
      </trkpt>
      <trkpt lat="45.45732" lon="6.39934">
        <ele>1503</ele>
        <time>2022-08-07T14:55:12Z</time>
      </trkpt>
      <trkpt lat="45.45729" lon="6.39929">
        <ele>1504</ele>
        <time>2022-08-07T14:55:17Z</time>
      </trkpt>
      <trkpt lat="45.45727" lon="6.39923">
        <ele>1505</ele>
        <time>2022-08-07T14:55:21Z</time>
      </trkpt>
      <trkpt lat="45.45726" lon="6.39917">
        <ele>1505</ele>
        <time>2022-08-07T14:55:26Z</time>
      </trkpt>
      <trkpt lat="45.45725" lon="6.3991">
        <ele>1504</ele>
        <time>2022-08-07T14:55:30Z</time>
      </trkpt>
      <trkpt lat="45.45722" lon="6.39903">
        <ele>1504</ele>
        <time>2022-08-07T14:55:35Z</time>
      </trkpt>
      <trkpt lat="45.45722" lon="6.39897">
        <ele>1504</ele>
        <time>2022-08-07T14:55:39Z</time>
      </trkpt>
      <trkpt lat="45.4572" lon="6.39891">
        <ele>1504</ele>
        <time>2022-08-07T14:55:43Z</time>
      </trkpt>
      <trkpt lat="45.45717" lon="6.39886">
        <ele>1504</ele>
        <time>2022-08-07T14:55:47Z</time>
      </trkpt>
      <trkpt lat="45.45715" lon="6.3988">
        <ele>1504</ele>
        <time>2022-08-07T14:55:52Z</time>
      </trkpt>
      <trkpt lat="45.45712" lon="6.39874">
        <ele>1503</ele>
        <time>2022-08-07T14:55:57Z</time>
      </trkpt>
      <trkpt lat="45.45708" lon="6.39868">
        <ele>1504</ele>
        <time>2022-08-07T14:56:03Z</time>
      </trkpt>
      <trkpt lat="45.45703" lon="6.39857">
        <ele>1505</ele>
        <time>2022-08-07T14:56:11Z</time>
      </trkpt>
      <trkpt lat="45.4568" lon="6.39822">
        <ele>1505</ele>
        <time>2022-08-07T14:56:42Z</time>
      </trkpt>
      <trkpt lat="45.4568" lon="6.39816">
        <ele>1506</ele>
        <time>2022-08-07T14:56:46Z</time>
      </trkpt>
      <trkpt lat="45.45677" lon="6.39808">
        <ele>1507</ele>
        <time>2022-08-07T14:56:53Z</time>
      </trkpt>
      <trkpt lat="45.45673" lon="6.39805">
        <ele>1507</ele>
        <time>2022-08-07T14:56:57Z</time>
      </trkpt>
      <trkpt lat="45.45669" lon="6.39805">
        <ele>1508</ele>
        <time>2022-08-07T14:57:01Z</time>
      </trkpt>
      <trkpt lat="45.45665" lon="6.39811">
        <ele>1508</ele>
        <time>2022-08-07T14:57:06Z</time>
      </trkpt>
      <trkpt lat="45.45663" lon="6.39817">
        <ele>1509</ele>
        <time>2022-08-07T14:57:11Z</time>
      </trkpt>
      <trkpt lat="45.45662" lon="6.39824">
        <ele>1509</ele>
        <time>2022-08-07T14:57:15Z</time>
      </trkpt>
      <trkpt lat="45.45661" lon="6.3983">
        <ele>1509</ele>
        <time>2022-08-07T14:57:20Z</time>
      </trkpt>
      <trkpt lat="45.45662" lon="6.39836">
        <ele>1509</ele>
        <time>2022-08-07T14:57:24Z</time>
      </trkpt>
      <trkpt lat="45.45661" lon="6.39845">
        <ele>1510</ele>
        <time>2022-08-07T14:57:32Z</time>
      </trkpt>
      <trkpt lat="45.45661" lon="6.39851">
        <ele>1510</ele>
        <time>2022-08-07T14:57:36Z</time>
      </trkpt>
      <trkpt lat="45.45661" lon="6.39858">
        <ele>1511</ele>
        <time>2022-08-07T14:57:40Z</time>
      </trkpt>
      <trkpt lat="45.4566" lon="6.39875">
        <ele>1511</ele>
        <time>2022-08-07T14:57:52Z</time>
      </trkpt>
      <trkpt lat="45.45659" lon="6.39889">
        <ele>1512</ele>
        <time>2022-08-07T14:58:01Z</time>
      </trkpt>
      <trkpt lat="45.45658" lon="6.39895">
        <ele>1513</ele>
        <time>2022-08-07T14:58:06Z</time>
      </trkpt>
      <trkpt lat="45.45643" lon="6.39921">
        <ele>1515</ele>
        <time>2022-08-07T14:58:31Z</time>
      </trkpt>
      <trkpt lat="45.45642" lon="6.39928">
        <ele>1516</ele>
        <time>2022-08-07T14:58:34Z</time>
      </trkpt>
      <trkpt lat="45.4564" lon="6.39946">
        <ele>1517</ele>
        <time>2022-08-07T14:58:46Z</time>
      </trkpt>
      <trkpt lat="45.45633" lon="6.39956">
        <ele>1519</ele>
        <time>2022-08-07T14:58:59Z</time>
      </trkpt>
      <trkpt lat="45.45632" lon="6.39952">
        <ele>1522</ele>
        <time>2022-08-07T14:59:26Z</time>
      </trkpt>
      <trkpt lat="45.45631" lon="6.39934">
        <ele>1525</ele>
        <time>2022-08-07T14:59:40Z</time>
      </trkpt>
      <trkpt lat="45.45628" lon="6.39917">
        <ele>1526</ele>
        <time>2022-08-07T14:59:54Z</time>
      </trkpt>
      <trkpt lat="45.4563" lon="6.399">
        <ele>1528</ele>
        <time>2022-08-07T15:00:06Z</time>
      </trkpt>
      <trkpt lat="45.45624" lon="6.39886">
        <ele>1530</ele>
        <time>2022-08-07T15:00:23Z</time>
      </trkpt>
      <trkpt lat="45.45625" lon="6.39879">
        <ele>1531</ele>
        <time>2022-08-07T15:00:28Z</time>
      </trkpt>
      <trkpt lat="45.45623" lon="6.39872">
        <ele>1532</ele>
        <time>2022-08-07T15:00:35Z</time>
      </trkpt>
      <trkpt lat="45.45623" lon="6.39864">
        <ele>1533</ele>
        <time>2022-08-07T15:00:45Z</time>
      </trkpt>
      <trkpt lat="45.45622" lon="6.39858">
        <ele>1534</ele>
        <time>2022-08-07T15:00:50Z</time>
      </trkpt>
      <trkpt lat="45.45621" lon="6.39851">
        <ele>1535</ele>
        <time>2022-08-07T15:01:00Z</time>
      </trkpt>
      <trkpt lat="45.45622" lon="6.39845">
        <ele>1536</ele>
        <time>2022-08-07T15:01:10Z</time>
      </trkpt>
      <trkpt lat="45.45621" lon="6.39849">
        <ele>1541</ele>
        <time>2022-08-07T15:11:49Z</time>
      </trkpt>
      <trkpt lat="45.45618" lon="6.39854">
        <ele>1540</ele>
        <time>2022-08-07T15:11:54Z</time>
      </trkpt>
      <trkpt lat="45.4562" lon="6.39861">
        <ele>1540</ele>
        <time>2022-08-07T15:12:06Z</time>
      </trkpt>
      <trkpt lat="45.4562" lon="6.39869">
        <ele>1538</ele>
        <time>2022-08-07T15:12:17Z</time>
      </trkpt>
      <trkpt lat="45.45624" lon="6.39877">
        <ele>1537</ele>
        <time>2022-08-07T15:12:48Z</time>
      </trkpt>
      <trkpt lat="45.45619" lon="6.39885">
        <ele>1536</ele>
        <time>2022-08-07T15:12:59Z</time>
      </trkpt>
      <trkpt lat="45.4562" lon="6.39896">
        <ele>1535</ele>
        <time>2022-08-07T15:13:09Z</time>
      </trkpt>
      <trkpt lat="45.45622" lon="6.39901">
        <ele>1534</ele>
        <time>2022-08-07T15:13:16Z</time>
      </trkpt>
      <trkpt lat="45.45623" lon="6.39912">
        <ele>1533</ele>
        <time>2022-08-07T15:13:26Z</time>
      </trkpt>
      <trkpt lat="45.45624" lon="6.39918">
        <ele>1532</ele>
        <time>2022-08-07T15:13:34Z</time>
      </trkpt>
      <trkpt lat="45.45625" lon="6.39925">
        <ele>1531</ele>
        <time>2022-08-07T15:13:44Z</time>
      </trkpt>
      <trkpt lat="45.45628" lon="6.39936">
        <ele>1531</ele>
        <time>2022-08-07T15:13:54Z</time>
      </trkpt>
      <trkpt lat="45.45627" lon="6.39945">
        <ele>1530</ele>
        <time>2022-08-07T15:14:01Z</time>
      </trkpt>
      <trkpt lat="45.45628" lon="6.39952">
        <ele>1529</ele>
        <time>2022-08-07T15:14:09Z</time>
      </trkpt>
      <trkpt lat="45.45628" lon="6.39972">
        <ele>1528</ele>
        <time>2022-08-07T15:14:30Z</time>
      </trkpt>
      <trkpt lat="45.45633" lon="6.39965">
        <ele>1526</ele>
        <time>2022-08-07T15:14:41Z</time>
      </trkpt>
      <trkpt lat="45.4564" lon="6.39952">
        <ele>1524</ele>
        <time>2022-08-07T15:15:26Z</time>
      </trkpt>
      <trkpt lat="45.45645" lon="6.39925">
        <ele>1521</ele>
        <time>2022-08-07T15:15:56Z</time>
      </trkpt>
      <trkpt lat="45.45649" lon="6.39918">
        <ele>1520</ele>
        <time>2022-08-07T15:16:13Z</time>
      </trkpt>
      <trkpt lat="45.45656" lon="6.39902">
        <ele>1518</ele>
        <time>2022-08-07T15:16:34Z</time>
      </trkpt>
      <trkpt lat="45.45659" lon="6.39893">
        <ele>1517</ele>
        <time>2022-08-07T15:16:44Z</time>
      </trkpt>
      <trkpt lat="45.4566" lon="6.39882">
        <ele>1516</ele>
        <time>2022-08-07T15:16:54Z</time>
      </trkpt>
      <trkpt lat="45.45661" lon="6.39873">
        <ele>1515</ele>
        <time>2022-08-07T15:17:04Z</time>
      </trkpt>
      <trkpt lat="45.4566" lon="6.39866">
        <ele>1515</ele>
        <time>2022-08-07T15:17:09Z</time>
      </trkpt>
      <trkpt lat="45.45662" lon="6.39845">
        <ele>1513</ele>
        <time>2022-08-07T15:17:27Z</time>
      </trkpt>
      <trkpt lat="45.45662" lon="6.39835">
        <ele>1513</ele>
        <time>2022-08-07T15:17:37Z</time>
      </trkpt>
      <trkpt lat="45.45662" lon="6.39827">
        <ele>1512</ele>
        <time>2022-08-07T15:17:47Z</time>
      </trkpt>
      <trkpt lat="45.45669" lon="6.39809">
        <ele>1511</ele>
        <time>2022-08-07T15:18:09Z</time>
      </trkpt>
      <trkpt lat="45.45674" lon="6.39808">
        <ele>1511</ele>
        <time>2022-08-07T15:18:17Z</time>
      </trkpt>
      <trkpt lat="45.45677" lon="6.39814">
        <ele>1510</ele>
        <time>2022-08-07T15:18:29Z</time>
      </trkpt>
      <trkpt lat="45.45677" lon="6.39824">
        <ele>1508</ele>
        <time>2022-08-07T15:18:50Z</time>
      </trkpt>
      <trkpt lat="45.4568" lon="6.3983">
        <ele>1508</ele>
        <time>2022-08-07T15:18:54Z</time>
      </trkpt>
      <trkpt lat="45.45684" lon="6.39839">
        <ele>1508</ele>
        <time>2022-08-07T15:19:03Z</time>
      </trkpt>
      <trkpt lat="45.45703" lon="6.39861">
        <ele>1507</ele>
        <time>2022-08-07T15:19:32Z</time>
      </trkpt>
      <trkpt lat="45.45714" lon="6.39883">
        <ele>1505</ele>
        <time>2022-08-07T15:19:56Z</time>
      </trkpt>
      <trkpt lat="45.45713" lon="6.39891">
        <ele>1506</ele>
        <time>2022-08-07T15:20:06Z</time>
      </trkpt>
      <trkpt lat="45.45718" lon="6.39896">
        <ele>1506</ele>
        <time>2022-08-07T15:20:10Z</time>
      </trkpt>
      <trkpt lat="45.4572" lon="6.39901">
        <ele>1506</ele>
        <time>2022-08-07T15:20:15Z</time>
      </trkpt>
      <trkpt lat="45.45724" lon="6.39914">
        <ele>1506</ele>
        <time>2022-08-07T15:20:25Z</time>
      </trkpt>
      <trkpt lat="45.45725" lon="6.39922">
        <ele>1506</ele>
        <time>2022-08-07T15:20:32Z</time>
      </trkpt>
      <trkpt lat="45.45727" lon="6.39929">
        <ele>1506</ele>
        <time>2022-08-07T15:20:39Z</time>
      </trkpt>
      <trkpt lat="45.45734" lon="6.39936">
        <ele>1506</ele>
        <time>2022-08-07T15:20:49Z</time>
      </trkpt>
      <trkpt lat="45.45738" lon="6.39937">
        <ele>1505</ele>
        <time>2022-08-07T15:20:54Z</time>
      </trkpt>
      <trkpt lat="45.45742" lon="6.39942">
        <ele>1505</ele>
        <time>2022-08-07T15:20:59Z</time>
      </trkpt>
      <trkpt lat="45.45745" lon="6.39952">
        <ele>1505</ele>
        <time>2022-08-07T15:21:09Z</time>
      </trkpt>
      <trkpt lat="45.45746" lon="6.39959">
        <ele>1506</ele>
        <time>2022-08-07T15:21:16Z</time>
      </trkpt>
      <trkpt lat="45.45746" lon="6.39974">
        <ele>1503</ele>
        <time>2022-08-07T15:21:32Z</time>
      </trkpt>
      <trkpt lat="45.45759" lon="6.40004">
        <ele>1505</ele>
        <time>2022-08-07T15:22:04Z</time>
      </trkpt>
      <trkpt lat="45.45763" lon="6.40008">
        <ele>1505</ele>
        <time>2022-08-07T15:22:09Z</time>
      </trkpt>
      <trkpt lat="45.45766" lon="6.40012">
        <ele>1506</ele>
        <time>2022-08-07T15:22:16Z</time>
      </trkpt>
      <trkpt lat="45.45772" lon="6.40016">
        <ele>1506</ele>
        <time>2022-08-07T15:22:44Z</time>
      </trkpt>
      <trkpt lat="45.4579" lon="6.40025">
        <ele>1506</ele>
        <time>2022-08-07T15:23:11Z</time>
      </trkpt>
      <trkpt lat="45.45796" lon="6.40026">
        <ele>1506</ele>
        <time>2022-08-07T15:23:18Z</time>
      </trkpt>
      <trkpt lat="45.45801" lon="6.40028">
        <ele>1506</ele>
        <time>2022-08-07T15:23:50Z</time>
      </trkpt>
      <trkpt lat="45.45805" lon="6.40031">
        <ele>1506</ele>
        <time>2022-08-07T15:23:55Z</time>
      </trkpt>
      <trkpt lat="45.45811" lon="6.40037">
        <ele>1507</ele>
        <time>2022-08-07T15:24:04Z</time>
      </trkpt>
      <trkpt lat="45.45815" lon="6.40041">
        <ele>1507</ele>
        <time>2022-08-07T15:24:08Z</time>
      </trkpt>
      <trkpt lat="45.45819" lon="6.40044">
        <ele>1507</ele>
        <time>2022-08-07T15:24:13Z</time>
      </trkpt>
      <trkpt lat="45.45827" lon="6.40048">
        <ele>1506</ele>
        <time>2022-08-07T15:24:21Z</time>
      </trkpt>
      <trkpt lat="45.45838" lon="6.40053">
        <ele>1507</ele>
        <time>2022-08-07T15:24:32Z</time>
      </trkpt>
      <trkpt lat="45.45852" lon="6.40062">
        <ele>1507</ele>
        <time>2022-08-07T15:24:56Z</time>
      </trkpt>
      <trkpt lat="45.45854" lon="6.40069">
        <ele>1507</ele>
        <time>2022-08-07T15:25:04Z</time>
      </trkpt>
      <trkpt lat="45.45867" lon="6.40094">
        <ele>1504</ele>
        <time>2022-08-07T15:25:27Z</time>
      </trkpt>
      <trkpt lat="45.45875" lon="6.40105">
        <ele>1503</ele>
        <time>2022-08-07T15:25:38Z</time>
      </trkpt>
      <trkpt lat="45.45879" lon="6.40111">
        <ele>1502</ele>
        <time>2022-08-07T15:25:47Z</time>
      </trkpt>
      <trkpt lat="45.45881" lon="6.40118">
        <ele>1502</ele>
        <time>2022-08-07T15:25:58Z</time>
      </trkpt>
      <trkpt lat="45.45886" lon="6.40122">
        <ele>1502</ele>
        <time>2022-08-07T15:26:14Z</time>
      </trkpt>
      <trkpt lat="45.45892" lon="6.40124">
        <ele>1502</ele>
        <time>2022-08-07T15:26:24Z</time>
      </trkpt>
      <trkpt lat="45.45902" lon="6.40145">
        <ele>1501</ele>
        <time>2022-08-07T15:26:45Z</time>
      </trkpt>
      <trkpt lat="45.45905" lon="6.40152">
        <ele>1501</ele>
        <time>2022-08-07T15:26:54Z</time>
      </trkpt>
      <trkpt lat="45.45917" lon="6.40169">
        <ele>1501</ele>
        <time>2022-08-07T15:27:13Z</time>
      </trkpt>
      <trkpt lat="45.45924" lon="6.40179">
        <ele>1499</ele>
        <time>2022-08-07T15:27:25Z</time>
      </trkpt>
      <trkpt lat="45.45938" lon="6.4019">
        <ele>1498</ele>
        <time>2022-08-07T15:27:42Z</time>
      </trkpt>
      <trkpt lat="45.45949" lon="6.40196">
        <ele>1496</ele>
        <time>2022-08-07T15:28:02Z</time>
      </trkpt>
      <trkpt lat="45.45954" lon="6.40201">
        <ele>1496</ele>
        <time>2022-08-07T15:28:17Z</time>
      </trkpt>
      <trkpt lat="45.4596" lon="6.40204">
        <ele>1495</ele>
        <time>2022-08-07T15:28:27Z</time>
      </trkpt>
      <trkpt lat="45.45969" lon="6.4021">
        <ele>1495</ele>
        <time>2022-08-07T15:28:38Z</time>
      </trkpt>
      <trkpt lat="45.4599" lon="6.40229">
        <ele>1493</ele>
        <time>2022-08-07T15:29:05Z</time>
      </trkpt>
      <trkpt lat="45.46004" lon="6.40237">
        <ele>1492</ele>
        <time>2022-08-07T15:29:23Z</time>
      </trkpt>
      <trkpt lat="45.46012" lon="6.40244">
        <ele>1491</ele>
        <time>2022-08-07T15:29:33Z</time>
      </trkpt>
      <trkpt lat="45.46016" lon="6.40248">
        <ele>1491</ele>
        <time>2022-08-07T15:29:38Z</time>
      </trkpt>
      <trkpt lat="45.4602" lon="6.40254">
        <ele>1491</ele>
        <time>2022-08-07T15:29:45Z</time>
      </trkpt>
      <trkpt lat="45.46025" lon="6.40256">
        <ele>1491</ele>
        <time>2022-08-07T15:29:50Z</time>
      </trkpt>
      <trkpt lat="45.46046" lon="6.40274">
        <ele>1488</ele>
        <time>2022-08-07T15:30:18Z</time>
      </trkpt>
      <trkpt lat="45.46056" lon="6.40279">
        <ele>1487</ele>
        <time>2022-08-07T15:30:30Z</time>
      </trkpt>
      <trkpt lat="45.46069" lon="6.40282">
        <ele>1486</ele>
        <time>2022-08-07T15:30:44Z</time>
      </trkpt>
      <trkpt lat="45.46088" lon="6.40287">
        <ele>1485</ele>
        <time>2022-08-07T15:31:05Z</time>
      </trkpt>
      <trkpt lat="45.46095" lon="6.40288">
        <ele>1484</ele>
        <time>2022-08-07T15:31:13Z</time>
      </trkpt>
      <trkpt lat="45.46101" lon="6.40292">
        <ele>1483</ele>
        <time>2022-08-07T15:31:21Z</time>
      </trkpt>
      <trkpt lat="45.46111" lon="6.403">
        <ele>1482</ele>
        <time>2022-08-07T15:31:43Z</time>
      </trkpt>
      <trkpt lat="45.46116" lon="6.40305">
        <ele>1481</ele>
        <time>2022-08-07T15:31:50Z</time>
      </trkpt>
      <trkpt lat="45.46119" lon="6.4031">
        <ele>1481</ele>
        <time>2022-08-07T15:31:55Z</time>
      </trkpt>
      <trkpt lat="45.46132" lon="6.40321">
        <ele>1480</ele>
        <time>2022-08-07T15:32:12Z</time>
      </trkpt>
      <trkpt lat="45.46151" lon="6.40349">
        <ele>1477</ele>
        <time>2022-08-07T15:32:46Z</time>
      </trkpt>
      <trkpt lat="45.46172" lon="6.40376">
        <ele>1475</ele>
        <time>2022-08-07T15:33:20Z</time>
      </trkpt>
      <trkpt lat="45.46191" lon="6.40394">
        <ele>1473</ele>
        <time>2022-08-07T15:33:50Z</time>
      </trkpt>
      <trkpt lat="45.46195" lon="6.40398">
        <ele>1473</ele>
        <time>2022-08-07T15:33:55Z</time>
      </trkpt>
      <trkpt lat="45.46206" lon="6.40408">
        <ele>1471</ele>
        <time>2022-08-07T15:34:12Z</time>
      </trkpt>
      <trkpt lat="45.46217" lon="6.40417">
        <ele>1470</ele>
        <time>2022-08-07T15:34:26Z</time>
      </trkpt>
      <trkpt lat="45.46229" lon="6.40427">
        <ele>1468</ele>
        <time>2022-08-07T15:34:48Z</time>
      </trkpt>
      <trkpt lat="45.46233" lon="6.40431">
        <ele>1468</ele>
        <time>2022-08-07T15:34:54Z</time>
      </trkpt>
      <trkpt lat="45.46247" lon="6.40444">
        <ele>1466</ele>
        <time>2022-08-07T15:35:14Z</time>
      </trkpt>
      <trkpt lat="45.46257" lon="6.40447">
        <ele>1465</ele>
        <time>2022-08-07T15:35:27Z</time>
      </trkpt>
      <trkpt lat="45.46269" lon="6.40451">
        <ele>1463</ele>
        <time>2022-08-07T15:38:01Z</time>
      </trkpt>
      <trkpt lat="45.46275" lon="6.40452">
        <ele>1463</ele>
        <time>2022-08-07T15:38:22Z</time>
      </trkpt>
      <trkpt lat="45.4628" lon="6.40454">
        <ele>1462</ele>
        <time>2022-08-07T15:39:13Z</time>
      </trkpt>
      <trkpt lat="45.46285" lon="6.40459">
        <ele>1462</ele>
        <time>2022-08-07T15:39:26Z</time>
      </trkpt>
      <trkpt lat="45.46302" lon="6.40458">
        <ele>1461</ele>
        <time>2022-08-07T15:39:56Z</time>
      </trkpt>
      <trkpt lat="45.46307" lon="6.40458">
        <ele>1460</ele>
        <time>2022-08-07T15:40:01Z</time>
      </trkpt>
      <trkpt lat="45.46317" lon="6.40462">
        <ele>1459</ele>
        <time>2022-08-07T15:40:10Z</time>
      </trkpt>
      <trkpt lat="45.4632" lon="6.40465">
        <ele>1459</ele>
        <time>2022-08-07T15:40:14Z</time>
      </trkpt>
      <trkpt lat="45.46324" lon="6.4047">
        <ele>1459</ele>
        <time>2022-08-07T15:40:19Z</time>
      </trkpt>
      <trkpt lat="45.46326" lon="6.40476">
        <ele>1458</ele>
        <time>2022-08-07T15:40:24Z</time>
      </trkpt>
      <trkpt lat="45.46329" lon="6.40482">
        <ele>1458</ele>
        <time>2022-08-07T15:40:28Z</time>
      </trkpt>
      <trkpt lat="45.46337" lon="6.4049">
        <ele>1455</ele>
        <time>2022-08-07T15:40:52Z</time>
      </trkpt>
      <trkpt lat="45.46342" lon="6.40492">
        <ele>1454</ele>
        <time>2022-08-07T15:40:56Z</time>
      </trkpt>
      <trkpt lat="45.46346" lon="6.40497">
        <ele>1453</ele>
        <time>2022-08-07T15:40:59Z</time>
      </trkpt>
      <trkpt lat="45.46363" lon="6.40512">
        <ele>1448</ele>
        <time>2022-08-07T15:41:13Z</time>
      </trkpt>
      <trkpt lat="45.46368" lon="6.40513">
        <ele>1447</ele>
        <time>2022-08-07T15:41:16Z</time>
      </trkpt>
      <trkpt lat="45.46372" lon="6.40513">
        <ele>1446</ele>
        <time>2022-08-07T15:41:19Z</time>
      </trkpt>
      <trkpt lat="45.46378" lon="6.40517">
        <ele>1445</ele>
        <time>2022-08-07T15:41:22Z</time>
      </trkpt>
      <trkpt lat="45.46383" lon="6.40513">
        <ele>1444</ele>
        <time>2022-08-07T15:41:24Z</time>
      </trkpt>
      <trkpt lat="45.4639" lon="6.40516">
        <ele>1444</ele>
        <time>2022-08-07T15:41:27Z</time>
      </trkpt>
      <trkpt lat="45.46397" lon="6.40512">
        <ele>1444</ele>
        <time>2022-08-07T15:41:32Z</time>
      </trkpt>
      <trkpt lat="45.46402" lon="6.40515">
        <ele>1445</ele>
        <time>2022-08-07T15:41:36Z</time>
      </trkpt>
      <trkpt lat="45.46405" lon="6.40519">
        <ele>1445</ele>
        <time>2022-08-07T15:41:39Z</time>
      </trkpt>
      <trkpt lat="45.46411" lon="6.40528">
        <ele>1446</ele>
        <time>2022-08-07T15:42:14Z</time>
      </trkpt>
      <trkpt lat="45.46425" lon="6.40552">
        <ele>1446</ele>
        <time>2022-08-07T15:42:35Z</time>
      </trkpt>
      <trkpt lat="45.46426" lon="6.40561">
        <ele>1446</ele>
        <time>2022-08-07T15:42:41Z</time>
      </trkpt>
      <trkpt lat="45.46427" lon="6.40567">
        <ele>1446</ele>
        <time>2022-08-07T15:42:46Z</time>
      </trkpt>
      <trkpt lat="45.46431" lon="6.40571">
        <ele>1445</ele>
        <time>2022-08-07T15:42:58Z</time>
      </trkpt>
      <trkpt lat="45.46438" lon="6.40578">
        <ele>1443</ele>
        <time>2022-08-07T15:43:10Z</time>
      </trkpt>
      <trkpt lat="45.46443" lon="6.40579">
        <ele>1442</ele>
        <time>2022-08-07T15:44:09Z</time>
      </trkpt>
      <trkpt lat="45.46454" lon="6.40589">
        <ele>1439</ele>
        <time>2022-08-07T15:44:34Z</time>
      </trkpt>
      <trkpt lat="45.46479" lon="6.40599">
        <ele>1435</ele>
        <time>2022-08-07T15:45:07Z</time>
      </trkpt>
      <trkpt lat="45.46482" lon="6.40602">
        <ele>1435</ele>
        <time>2022-08-07T15:45:12Z</time>
      </trkpt>
      <trkpt lat="45.46492" lon="6.40608">
        <ele>1433</ele>
        <time>2022-08-07T15:45:23Z</time>
      </trkpt>
      <trkpt lat="45.46498" lon="6.40613">
        <ele>1432</ele>
        <time>2022-08-07T15:45:28Z</time>
      </trkpt>
      <trkpt lat="45.46503" lon="6.40612">
        <ele>1430</ele>
        <time>2022-08-07T15:45:48Z</time>
      </trkpt>
      <trkpt lat="45.46506" lon="6.40618">
        <ele>1430</ele>
        <time>2022-08-07T15:46:44Z</time>
      </trkpt>
      <trkpt lat="45.46509" lon="6.40621">
        <ele>1430</ele>
        <time>2022-08-07T15:46:48Z</time>
      </trkpt>
      <trkpt lat="45.46513" lon="6.40624">
        <ele>1429</ele>
        <time>2022-08-07T15:46:53Z</time>
      </trkpt>
      <trkpt lat="45.46518" lon="6.40629">
        <ele>1428</ele>
        <time>2022-08-07T15:47:25Z</time>
      </trkpt>
      <trkpt lat="45.46522" lon="6.40632">
        <ele>1428</ele>
        <time>2022-08-07T15:47:29Z</time>
      </trkpt>
      <trkpt lat="45.46535" lon="6.4064">
        <ele>1425</ele>
        <time>2022-08-07T15:47:42Z</time>
      </trkpt>
      <trkpt lat="45.46541" lon="6.4064">
        <ele>1425</ele>
        <time>2022-08-07T15:47:45Z</time>
      </trkpt>
      <trkpt lat="45.46564" lon="6.40644">
        <ele>1421</ele>
        <time>2022-08-07T15:48:14Z</time>
      </trkpt>
      <trkpt lat="45.46587" lon="6.40655">
        <ele>1417</ele>
        <time>2022-08-07T15:48:36Z</time>
      </trkpt>
      <trkpt lat="45.46605" lon="6.4067">
        <ele>1414</ele>
        <time>2022-08-07T15:48:52Z</time>
      </trkpt>
      <trkpt lat="45.46614" lon="6.40674">
        <ele>1412</ele>
        <time>2022-08-07T15:49:00Z</time>
      </trkpt>
      <trkpt lat="45.46619" lon="6.40675">
        <ele>1412</ele>
        <time>2022-08-07T15:49:04Z</time>
      </trkpt>
      <trkpt lat="45.46632" lon="6.40683">
        <ele>1410</ele>
        <time>2022-08-07T15:49:16Z</time>
      </trkpt>
      <trkpt lat="45.46635" lon="6.40686">
        <ele>1409</ele>
        <time>2022-08-07T15:49:20Z</time>
      </trkpt>
      <trkpt lat="45.4665" lon="6.40693">
        <ele>1407</ele>
        <time>2022-08-07T15:49:33Z</time>
      </trkpt>
      <trkpt lat="45.46674" lon="6.40692">
        <ele>1403</ele>
        <time>2022-08-07T15:49:55Z</time>
      </trkpt>
      <trkpt lat="45.46684" lon="6.40688">
        <ele>1402</ele>
        <time>2022-08-07T15:50:05Z</time>
      </trkpt>
      <trkpt lat="45.46689" lon="6.40689">
        <ele>1401</ele>
        <time>2022-08-07T15:50:09Z</time>
      </trkpt>
      <trkpt lat="45.46693" lon="6.40692">
        <ele>1401</ele>
        <time>2022-08-07T15:50:13Z</time>
      </trkpt>
      <trkpt lat="45.46696" lon="6.40698">
        <ele>1401</ele>
        <time>2022-08-07T15:50:17Z</time>
      </trkpt>
      <trkpt lat="45.46705" lon="6.407">
        <ele>1401</ele>
        <time>2022-08-07T15:50:25Z</time>
      </trkpt>
      <trkpt lat="45.46711" lon="6.40696">
        <ele>1399</ele>
        <time>2022-08-07T15:50:32Z</time>
      </trkpt>
      <trkpt lat="45.46715" lon="6.40681">
        <ele>1397</ele>
        <time>2022-08-07T15:50:43Z</time>
      </trkpt>
      <trkpt lat="45.46717" lon="6.40675">
        <ele>1396</ele>
        <time>2022-08-07T15:50:55Z</time>
      </trkpt>
      <trkpt lat="45.46718" lon="6.40668">
        <ele>1395</ele>
        <time>2022-08-07T15:51:01Z</time>
      </trkpt>
      <trkpt lat="45.46726" lon="6.40655">
        <ele>1393</ele>
        <time>2022-08-07T15:51:19Z</time>
      </trkpt>
      <trkpt lat="45.46733" lon="6.40647">
        <ele>1393</ele>
        <time>2022-08-07T15:51:29Z</time>
      </trkpt>
      <trkpt lat="45.46741" lon="6.40644">
        <ele>1392</ele>
        <time>2022-08-07T15:51:38Z</time>
      </trkpt>
      <trkpt lat="45.46762" lon="6.40651">
        <ele>1390</ele>
        <time>2022-08-07T15:52:04Z</time>
      </trkpt>
      <trkpt lat="45.46771" lon="6.40658">
        <ele>1390</ele>
        <time>2022-08-07T15:52:37Z</time>
      </trkpt>
      <trkpt lat="45.46775" lon="6.40663">
        <ele>1391</ele>
        <time>2022-08-07T15:52:41Z</time>
      </trkpt>
      <trkpt lat="45.46776" lon="6.40669">
        <ele>1391</ele>
        <time>2022-08-07T15:52:45Z</time>
      </trkpt>
      <trkpt lat="45.46777" lon="6.40675">
        <ele>1391</ele>
        <time>2022-08-07T15:52:48Z</time>
      </trkpt>
      <trkpt lat="45.46777" lon="6.40683">
        <ele>1391</ele>
        <time>2022-08-07T15:52:53Z</time>
      </trkpt>
      <trkpt lat="45.46783" lon="6.40738">
        <ele>1392</ele>
        <time>2022-08-07T15:53:26Z</time>
      </trkpt>
      <trkpt lat="45.46784" lon="6.40752">
        <ele>1392</ele>
        <time>2022-08-07T15:53:34Z</time>
      </trkpt>
      <trkpt lat="45.46785" lon="6.40758">
        <ele>1393</ele>
        <time>2022-08-07T15:53:39Z</time>
      </trkpt>
      <trkpt lat="45.46786" lon="6.40766">
        <ele>1393</ele>
        <time>2022-08-07T15:53:46Z</time>
      </trkpt>
      <trkpt lat="45.46791" lon="6.40781">
        <ele>1392</ele>
        <time>2022-08-07T15:53:57Z</time>
      </trkpt>
      <trkpt lat="45.46797" lon="6.4079">
        <ele>1393</ele>
        <time>2022-08-07T15:54:04Z</time>
      </trkpt>
      <trkpt lat="45.46801" lon="6.40804">
        <ele>1392</ele>
        <time>2022-08-07T15:54:12Z</time>
      </trkpt>
      <trkpt lat="45.46802" lon="6.40818">
        <ele>1392</ele>
        <time>2022-08-07T15:54:20Z</time>
      </trkpt>
      <trkpt lat="45.46802" lon="6.40815">
        <ele>1393</ele>
        <time>2022-08-07T15:56:43Z</time>
      </trkpt>
      <trkpt lat="45.46802" lon="6.40815">
        <ele>1392</ele>
        <time>2022-08-07T15:57:02Z</time>
      </trkpt>
      <trkpt lat="45.46802" lon="6.40827">
        <ele>1393</ele>
        <time>2022-08-07T15:58:39Z</time>
      </trkpt>
      <trkpt lat="45.468" lon="6.40834">
        <ele>1393</ele>
        <time>2022-08-07T15:58:43Z</time>
      </trkpt>
      <trkpt lat="45.468" lon="6.40842">
        <ele>1392</ele>
        <time>2022-08-07T15:58:47Z</time>
      </trkpt>
      <trkpt lat="45.4681" lon="6.40869">
        <ele>1390</ele>
        <time>2022-08-07T15:59:02Z</time>
      </trkpt>
      <trkpt lat="45.46818" lon="6.40888">
        <ele>1388</ele>
        <time>2022-08-07T15:59:14Z</time>
      </trkpt>
      <trkpt lat="45.4682" lon="6.40894">
        <ele>1387</ele>
        <time>2022-08-07T15:59:18Z</time>
      </trkpt>
      <trkpt lat="45.46824" lon="6.409">
        <ele>1386</ele>
        <time>2022-08-07T15:59:22Z</time>
      </trkpt>
      <trkpt lat="45.46832" lon="6.40906">
        <ele>1385</ele>
        <time>2022-08-07T15:59:30Z</time>
      </trkpt>
      <trkpt lat="45.46841" lon="6.4091">
        <ele>1383</ele>
        <time>2022-08-07T15:59:38Z</time>
      </trkpt>
      <trkpt lat="45.46846" lon="6.4091">
        <ele>1382</ele>
        <time>2022-08-07T15:59:42Z</time>
      </trkpt>
      <trkpt lat="45.4686" lon="6.40918">
        <ele>1379</ele>
        <time>2022-08-07T15:59:54Z</time>
      </trkpt>
      <trkpt lat="45.46865" lon="6.40923">
        <ele>1378</ele>
        <time>2022-08-07T15:59:58Z</time>
      </trkpt>
      <trkpt lat="45.46869" lon="6.40925">
        <ele>1378</ele>
        <time>2022-08-07T16:00:01Z</time>
      </trkpt>
      <trkpt lat="45.46876" lon="6.40933">
        <ele>1377</ele>
        <time>2022-08-07T16:00:10Z</time>
      </trkpt>
      <trkpt lat="45.4688" lon="6.40937">
        <ele>1377</ele>
        <time>2022-08-07T16:00:15Z</time>
      </trkpt>
      <trkpt lat="45.46885" lon="6.40947">
        <ele>1376</ele>
        <time>2022-08-07T16:00:24Z</time>
      </trkpt>
      <trkpt lat="45.46889" lon="6.4095">
        <ele>1376</ele>
        <time>2022-08-07T16:00:28Z</time>
      </trkpt>
      <trkpt lat="45.46893" lon="6.40957">
        <ele>1376</ele>
        <time>2022-08-07T16:00:35Z</time>
      </trkpt>
      <trkpt lat="45.46897" lon="6.40969">
        <ele>1377</ele>
        <time>2022-08-07T16:00:45Z</time>
      </trkpt>
      <trkpt lat="45.46904" lon="6.40981">
        <ele>1378</ele>
        <time>2022-08-07T16:00:54Z</time>
      </trkpt>
      <trkpt lat="45.46915" lon="6.41003">
        <ele>1379</ele>
        <time>2022-08-07T16:01:14Z</time>
      </trkpt>
      <trkpt lat="45.46931" lon="6.41028">
        <ele>1380</ele>
        <time>2022-08-07T16:01:33Z</time>
      </trkpt>
      <trkpt lat="45.46934" lon="6.41034">
        <ele>1380</ele>
        <time>2022-08-07T16:01:37Z</time>
      </trkpt>
      <trkpt lat="45.4694" lon="6.41055">
        <ele>1378</ele>
        <time>2022-08-07T16:01:49Z</time>
      </trkpt>
      <trkpt lat="45.46943" lon="6.41061">
        <ele>1378</ele>
        <time>2022-08-07T16:01:53Z</time>
      </trkpt>
      <trkpt lat="45.46948" lon="6.41065">
        <ele>1378</ele>
        <time>2022-08-07T16:01:57Z</time>
      </trkpt>
      <trkpt lat="45.46959" lon="6.41066">
        <ele>1377</ele>
        <time>2022-08-07T16:02:05Z</time>
      </trkpt>
      <trkpt lat="45.46964" lon="6.41067">
        <ele>1377</ele>
        <time>2022-08-07T16:02:09Z</time>
      </trkpt>
      <trkpt lat="45.46972" lon="6.41067">
        <ele>1378</ele>
        <time>2022-08-07T16:02:15Z</time>
      </trkpt>
      <trkpt lat="45.46975" lon="6.41071">
        <ele>1378</ele>
        <time>2022-08-07T16:02:20Z</time>
      </trkpt>
      <trkpt lat="45.46978" lon="6.41078">
        <ele>1378</ele>
        <time>2022-08-07T16:02:24Z</time>
      </trkpt>
      <trkpt lat="45.46982" lon="6.41097">
        <ele>1377</ele>
        <time>2022-08-07T16:02:34Z</time>
      </trkpt>
      <trkpt lat="45.46987" lon="6.41109">
        <ele>1376</ele>
        <time>2022-08-07T16:02:41Z</time>
      </trkpt>
      <trkpt lat="45.46995" lon="6.41118">
        <ele>1377</ele>
        <time>2022-08-07T16:02:50Z</time>
      </trkpt>
      <trkpt lat="45.46998" lon="6.41122">
        <ele>1377</ele>
        <time>2022-08-07T16:02:54Z</time>
      </trkpt>
      <trkpt lat="45.47013" lon="6.41139">
        <ele>1379</ele>
        <time>2022-08-07T16:03:11Z</time>
      </trkpt>
      <trkpt lat="45.47029" lon="6.41157">
        <ele>1381</ele>
        <time>2022-08-07T16:03:30Z</time>
      </trkpt>
      <trkpt lat="45.47037" lon="6.41166">
        <ele>1381</ele>
        <time>2022-08-07T16:03:41Z</time>
      </trkpt>
      <trkpt lat="45.4704" lon="6.41171">
        <ele>1382</ele>
        <time>2022-08-07T16:03:45Z</time>
      </trkpt>
      <trkpt lat="45.47055" lon="6.41188">
        <ele>1382</ele>
        <time>2022-08-07T16:04:03Z</time>
      </trkpt>
      <trkpt lat="45.47059" lon="6.41195">
        <ele>1382</ele>
        <time>2022-08-07T16:04:10Z</time>
      </trkpt>
      <trkpt lat="45.47065" lon="6.41204">
        <ele>1382</ele>
        <time>2022-08-07T16:04:20Z</time>
      </trkpt>
      <trkpt lat="45.47071" lon="6.4121">
        <ele>1382</ele>
        <time>2022-08-07T16:04:29Z</time>
      </trkpt>
      <trkpt lat="45.47084" lon="6.41219">
        <ele>1380</ele>
        <time>2022-08-07T16:04:47Z</time>
      </trkpt>
      <trkpt lat="45.47092" lon="6.41222">
        <ele>1379</ele>
        <time>2022-08-07T16:04:57Z</time>
      </trkpt>
      <trkpt lat="45.47097" lon="6.41227">
        <ele>1378</ele>
        <time>2022-08-07T16:05:07Z</time>
      </trkpt>
      <trkpt lat="45.471" lon="6.4124">
        <ele>1376</ele>
        <time>2022-08-07T16:05:18Z</time>
      </trkpt>
      <trkpt lat="45.47107" lon="6.41249">
        <ele>1375</ele>
        <time>2022-08-07T16:05:26Z</time>
      </trkpt>
      <trkpt lat="45.47111" lon="6.4126">
        <ele>1374</ele>
        <time>2022-08-07T16:05:33Z</time>
      </trkpt>
      <trkpt lat="45.47119" lon="6.41268">
        <ele>1373</ele>
        <time>2022-08-07T16:05:43Z</time>
      </trkpt>
      <trkpt lat="45.47136" lon="6.41298">
        <ele>1372</ele>
        <time>2022-08-07T16:06:13Z</time>
      </trkpt>
      <trkpt lat="45.47147" lon="6.41324">
        <ele>1371</ele>
        <time>2022-08-07T16:06:33Z</time>
      </trkpt>
      <trkpt lat="45.47163" lon="6.41343">
        <ele>1370</ele>
        <time>2022-08-07T16:06:54Z</time>
      </trkpt>
      <trkpt lat="45.47172" lon="6.4135">
        <ele>1370</ele>
        <time>2022-08-07T16:07:01Z</time>
      </trkpt>
      <trkpt lat="45.4718" lon="6.4136">
        <ele>1369</ele>
        <time>2022-08-07T16:07:10Z</time>
      </trkpt>
      <trkpt lat="45.47186" lon="6.41366">
        <ele>1369</ele>
        <time>2022-08-07T16:07:19Z</time>
      </trkpt>
      <trkpt lat="45.47195" lon="6.41374">
        <ele>1369</ele>
        <time>2022-08-07T16:07:27Z</time>
      </trkpt>
      <trkpt lat="45.47197" lon="6.4138">
        <ele>1369</ele>
        <time>2022-08-07T16:07:32Z</time>
      </trkpt>
      <trkpt lat="45.47205" lon="6.41389">
        <ele>1369</ele>
        <time>2022-08-07T16:07:40Z</time>
      </trkpt>
      <trkpt lat="45.47208" lon="6.41394">
        <ele>1369</ele>
        <time>2022-08-07T16:07:43Z</time>
      </trkpt>
      <trkpt lat="45.47215" lon="6.41401">
        <ele>1369</ele>
        <time>2022-08-07T16:07:53Z</time>
      </trkpt>
      <trkpt lat="45.47218" lon="6.41407">
        <ele>1368</ele>
        <time>2022-08-07T16:07:57Z</time>
      </trkpt>
      <trkpt lat="45.47221" lon="6.41411">
        <ele>1368</ele>
        <time>2022-08-07T16:08:02Z</time>
      </trkpt>
      <trkpt lat="45.47227" lon="6.41415">
        <ele>1367</ele>
        <time>2022-08-07T16:08:11Z</time>
      </trkpt>
      <trkpt lat="45.47232" lon="6.41416">
        <ele>1367</ele>
        <time>2022-08-07T16:08:16Z</time>
      </trkpt>
      <trkpt lat="45.47236" lon="6.41421">
        <ele>1367</ele>
        <time>2022-08-07T16:08:21Z</time>
      </trkpt>
      <trkpt lat="45.4724" lon="6.41422">
        <ele>1367</ele>
        <time>2022-08-07T16:08:26Z</time>
      </trkpt>
      <trkpt lat="45.47241" lon="6.41428">
        <ele>1367</ele>
        <time>2022-08-07T16:08:31Z</time>
      </trkpt>
      <trkpt lat="45.47245" lon="6.41434">
        <ele>1367</ele>
        <time>2022-08-07T16:08:39Z</time>
      </trkpt>
      <trkpt lat="45.47253" lon="6.41437">
        <ele>1366</ele>
        <time>2022-08-07T16:08:50Z</time>
      </trkpt>
      <trkpt lat="45.47258" lon="6.4144">
        <ele>1366</ele>
        <time>2022-08-07T16:09:10Z</time>
      </trkpt>
      <trkpt lat="45.47262" lon="6.4144">
        <ele>1365</ele>
        <time>2022-08-07T16:09:15Z</time>
      </trkpt>
      <trkpt lat="45.47267" lon="6.41441">
        <ele>1365</ele>
        <time>2022-08-07T16:09:19Z</time>
      </trkpt>
      <trkpt lat="45.47268" lon="6.41443">
        <ele>1366</ele>
        <time>2022-08-07T16:15:26Z</time>
      </trkpt>
      <trkpt lat="45.4727" lon="6.41435">
        <ele>1366</ele>
        <time>2022-08-07T16:15:31Z</time>
      </trkpt>
      <trkpt lat="45.47271" lon="6.41433">
        <ele>1366</ele>
        <time>2022-08-07T16:16:15Z</time>
      </trkpt>
      <trkpt lat="45.47269" lon="6.41432">
        <ele>1368</ele>
        <time>2022-08-07T16:18:22Z</time>
      </trkpt>
      <trkpt lat="45.47271" lon="6.41432">
        <ele>1368</ele>
        <time>2022-08-07T16:18:59Z</time>
      </trkpt>
      <trkpt lat="45.47271" lon="6.41434">
        <ele>1366</ele>
        <time>2022-08-07T16:24:35Z</time>
      </trkpt>
      <trkpt lat="45.47266" lon="6.41441">
        <ele>1367</ele>
        <time>2022-08-07T16:25:49Z</time>
      </trkpt>
      <trkpt lat="45.47266" lon="6.4144">
        <ele>1366</ele>
        <time>2022-08-07T16:28:31Z</time>
      </trkpt>
      <trkpt lat="45.47271" lon="6.41437">
        <ele>1366</ele>
        <time>2022-08-07T16:28:46Z</time>
      </trkpt>
      <trkpt lat="45.47276" lon="6.41438">
        <ele>1367</ele>
        <time>2022-08-07T16:29:17Z</time>
      </trkpt>
      <trkpt lat="45.47272" lon="6.41444">
        <ele>1366</ele>
        <time>2022-08-07T16:31:37Z</time>
      </trkpt>
      <trkpt lat="45.47269" lon="6.41441">
        <ele>1365</ele>
        <time>2022-08-07T16:33:06Z</time>
      </trkpt>
      <trkpt lat="45.47266" lon="6.4144">
        <ele>1366</ele>
        <time>2022-08-07T16:38:37Z</time>
      </trkpt>
      <trkpt lat="45.47271" lon="6.4145">
        <ele>1367</ele>
        <time>2022-08-07T17:40:56Z</time>
      </trkpt>
      <trkpt lat="45.47269" lon="6.41445">
        <ele>1366</ele>
        <time>2022-08-07T19:14:33Z</time>
      </trkpt>
      <trkpt lat="45.47271" lon="6.41459">
        <ele>1366</ele>
        <time>2022-08-07T20:05:37Z</time>
      </trkpt>
      <trkpt lat="45.47276" lon="6.41433">
        <ele>1366</ele>
        <time>2022-08-07T20:06:19Z</time>
      </trkpt>
      <trkpt lat="45.47271" lon="6.41439">
        <ele>1366</ele>
        <time>2022-08-07T20:06:22Z</time>
      </trkpt>
      <trkpt lat="45.4726" lon="6.41441">
        <ele>1365</ele>
        <time>2022-08-07T20:06:34Z</time>
      </trkpt>
      <trkpt lat="45.47252" lon="6.41439">
        <ele>1364</ele>
        <time>2022-08-07T20:06:41Z</time>
      </trkpt>
      <trkpt lat="45.47242" lon="6.41427">
        <ele>1365</ele>
        <time>2022-08-07T20:06:53Z</time>
      </trkpt>
      <trkpt lat="45.47236" lon="6.41417">
        <ele>1366</ele>
        <time>2022-08-07T20:07:03Z</time>
      </trkpt>
      <trkpt lat="45.4723" lon="6.41411">
        <ele>1366</ele>
        <time>2022-08-07T20:07:11Z</time>
      </trkpt>
      <trkpt lat="45.47225" lon="6.41408">
        <ele>1367</ele>
        <time>2022-08-07T20:07:16Z</time>
      </trkpt>
      <trkpt lat="45.47221" lon="6.41403">
        <ele>1367</ele>
        <time>2022-08-07T20:07:21Z</time>
      </trkpt>
      <trkpt lat="45.47219" lon="6.41396">
        <ele>1368</ele>
        <time>2022-08-07T20:07:25Z</time>
      </trkpt>
      <trkpt lat="45.47212" lon="6.41388">
        <ele>1368</ele>
        <time>2022-08-07T20:07:33Z</time>
      </trkpt>
      <trkpt lat="45.47208" lon="6.41386">
        <ele>1369</ele>
        <time>2022-08-07T20:07:37Z</time>
      </trkpt>
      <trkpt lat="45.47204" lon="6.41381">
        <ele>1369</ele>
        <time>2022-08-07T20:07:41Z</time>
      </trkpt>
      <trkpt lat="45.472" lon="6.41378">
        <ele>1369</ele>
        <time>2022-08-07T20:07:45Z</time>
      </trkpt>
      <trkpt lat="45.47196" lon="6.41372">
        <ele>1369</ele>
        <time>2022-08-07T20:07:49Z</time>
      </trkpt>
      <trkpt lat="45.47191" lon="6.41373">
        <ele>1369</ele>
        <time>2022-08-07T20:07:53Z</time>
      </trkpt>
      <trkpt lat="45.47175" lon="6.41385">
        <ele>1367</ele>
        <time>2022-08-07T20:12:22Z</time>
      </trkpt>
      <trkpt lat="45.47226" lon="6.41411">
        <ele>1365.8</ele>
        <time>2022-08-08T07:01:04Z</time>
      </trkpt>
      <trkpt lat="45.47272" lon="6.41454">
        <ele>1366</ele>
        <time>2022-08-08T07:09:42Z</time>
      </trkpt>
    </trkseg>
  </trk>
  <rte>
    <name><![CDATA[4 avr. 2019 à 23:11:12]]></name>
    <cmt><![CDATA[4 avr. 2019 à 23:11:12]]></cmt>
    <desc><![CDATA[{DC1}Heure de fin	: 
Durée totale	: 0h00:00
Moyenne globale	: -
Pente moyenne	: 0.00 %
Aire incluse	: 7.4932 ha
Détails par segments
distance  | durée    | vit.moy. | vit.max. | déniv. + | déniv -
   km     | hh:mn:ss |   km/h   |   km/h   |    m     |    m
     0.81 | 00:00:00 |      0.0 |      0.0 |        0 |        0{DC2}]]></desc>
      <rtept lat="45.60077" lon="6.18221">
        <ele>1608.6</ele>
      </rtept>
      <rtept lat="45.59468" lon="6.1822">
        <ele>1760.9</ele>
      </rtept>
      <rtept lat="45.59468" lon="6.1822">
        <ele>1760.9</ele>
      </rtept>
    </rte>
  <rte>
    <name><![CDATA[10 févr. 2019 à 15:16:12]]></name>
    <cmt><![CDATA[10 févr. 2019 à 15:16:12]]></cmt>
    <desc><![CDATA[{DC1}Heure de fin	: 00:09:21
Durée totale	: -17690439h43:48
Moyenne globale	: -
Pente moyenne	: 7.00 %
Aire incluse	: 221.0936 ha
Détails par segments
distance  | durée    | vit.moy. | vit.max. | déniv. + | déniv -
   km     | hh:mn:ss |   km/h   |   km/h   |    m     |    m
     7.48 | 00:00:00 |      0.0 |      0.0 |        0 |        0{DC2}]]></desc>
      <rtept lat="45.55203" lon="5.93805">
        <ele>376</ele>
      </rtept>
      <rtept lat="45.55177" lon="5.93873">
        <ele>369</ele>
      </rtept>
      <rtept lat="45.55176" lon="5.93942">
        <ele>367</ele>
      </rtept>
      <rtept lat="45.55105" lon="5.93942">
        <ele>367</ele>
      </rtept>
      <rtept lat="45.54993" lon="5.93908">
        <ele>371</ele>
      </rtept>
      <rtept lat="45.54929" lon="5.94099">
        <ele>370</ele>
      </rtept>
      <rtept lat="45.54908" lon="5.94204">
        <ele>367</ele>
      </rtept>
      <rtept lat="45.54991" lon="5.94287">
        <ele>365</ele>
      </rtept>
      <rtept lat="45.5506" lon="5.94384">
        <ele>361</ele>
      </rtept>
      <rtept lat="45.55147" lon="5.94384">
        <ele>357</ele>
      </rtept>
      <rtept lat="45.55129" lon="5.94607">
        <ele>358</ele>
      </rtept>
      <rtept lat="45.55029" lon="5.94809">
        <ele>355</ele>
      </rtept>
      <rtept lat="45.54884" lon="5.94886">
        <ele>346</ele>
      </rtept>
      <rtept lat="45.5477" lon="5.94931">
        <ele>342</ele>
      </rtept>
      <rtept lat="45.5468" lon="5.95004">
        <ele>339</ele>
      </rtept>
      <rtept lat="45.54596" lon="5.95133">
        <ele>340</ele>
      </rtept>
      <rtept lat="45.54446" lon="5.95195">
        <ele>343</ele>
      </rtept>
      <rtept lat="45.543" lon="5.95262">
        <ele>344</ele>
      </rtept>
      <rtept lat="45.54156" lon="5.95212">
        <ele>337</ele>
      </rtept>
      <rtept lat="45.54041" lon="5.95204">
        <ele>338</ele>
      </rtept>
      <rtept lat="45.53917" lon="5.95141">
        <ele>343</ele>
      </rtept>
      <rtept lat="45.53844" lon="5.95135">
        <ele>347</ele>
      </rtept>
      <rtept lat="45.53765" lon="5.9503">
        <ele>349</ele>
      </rtept>
      <rtept lat="45.5381" lon="5.94993">
        <ele>352</ele>
      </rtept>
      <rtept lat="45.53781" lon="5.94901">
        <ele>358</ele>
      </rtept>
      <rtept lat="45.53711" lon="5.94845">
        <ele>365</ele>
      </rtept>
      <rtept lat="45.53702" lon="5.94764">
        <ele>369</ele>
      </rtept>
      <rtept lat="45.53817" lon="5.94807">
        <ele>376</ele>
      </rtept>
      <rtept lat="45.53865" lon="5.94633">
        <ele>389</ele>
      </rtept>
      <rtept lat="45.53778" lon="5.94491">
        <ele>408</ele>
      </rtept>
      <rtept lat="45.53757" lon="5.94371">
        <ele>425</ele>
      </rtept>
      <rtept lat="45.53775" lon="5.94279">
        <ele>434</ele>
      </rtept>
      <rtept lat="45.53726" lon="5.94227">
        <ele>442</ele>
      </rtept>
      <rtept lat="45.53572" lon="5.94146">
        <ele>468</ele>
      </rtept>
      <rtept lat="45.53664" lon="5.94039">
        <ele>483</ele>
      </rtept>
      <rtept lat="45.53532" lon="5.93983">
        <ele>505</ele>
      </rtept>
      <rtept lat="45.53416" lon="5.93985">
        <ele>516</ele>
      </rtept>
      <rtept lat="45.5355" lon="5.93869">
        <ele>532</ele>
      </rtept>
      <rtept lat="45.5359" lon="5.93845">
        <ele>537</ele>
      </rtept>
      <rtept lat="45.5355" lon="5.93802">
        <ele>544</ele>
      </rtept>
      <rtept lat="45.53724" lon="5.93554">
        <ele>587</ele>
      </rtept>
      <rtept lat="45.53691" lon="5.93339">
        <ele>592</ele>
      </rtept>
      <rtept lat="45.5376" lon="5.93178">
        <ele>575</ele>
      </rtept>
      <rtept lat="45.53843" lon="5.93069">
        <ele>555</ele>
      </rtept>
      <rtept lat="45.53939" lon="5.93157">
        <ele>541</ele>
      </rtept>
      <rtept lat="45.54068" lon="5.93234">
        <ele>522</ele>
      </rtept>
      <rtept lat="45.54219" lon="5.93247">
        <ele>514</ele>
      </rtept>
      <rtept lat="45.54355" lon="5.93232">
        <ele>512</ele>
      </rtept>
      <rtept lat="45.54489" lon="5.9326">
        <ele>508</ele>
      </rtept>
      <rtept lat="45.54636" lon="5.93249">
        <ele>510</ele>
      </rtept>
      <rtept lat="45.54758" lon="5.93249">
        <ele>510</ele>
      </rtept>
      <rtept lat="45.54818" lon="5.93298">
        <ele>507</ele>
      </rtept>
      <rtept lat="45.54796" lon="5.93418">
        <ele>496</ele>
      </rtept>
      <rtept lat="45.5491" lon="5.93433">
        <ele>483</ele>
      </rtept>
      <rtept lat="45.55126" lon="5.9341">
        <ele>463</ele>
      </rtept>
      <rtept lat="45.55256" lon="5.93453">
        <ele>444</ele>
      </rtept>
      <rtept lat="45.55329" lon="5.93558">
        <ele>430</ele>
      </rtept>
      <rtept lat="45.55222" lon="5.93642">
        <ele>415</ele>
      </rtept>
      <rtept lat="45.55195" lon="5.93811">
        <ele>375</ele>
      </rtept>
    </rte>
  <rte>
    <name><![CDATA[10 févr. 2019 à 15:15:48]]></name>
    <cmt><![CDATA[10 févr. 2019 à 15:15:48]]></cmt>
    <desc><![CDATA[{DC1}Heure de fin	: 00:09:21
Durée totale	: -17690439h44:12
Moyenne globale	: -
Pente moyenne	: nan %
Aire incluse	: 0.0000 ha
Détails par segments
distance  | durée    | vit.moy. | vit.max. | déniv. + | déniv -
   km     | hh:mn:ss |   km/h   |   km/h   |    m     |    m
     0.00 | 00:00:00 |      0.0 |      0.0 |        0 |        0{DC2}]]></desc>
      <rtept lat="45.5175" lon="5.93483">
        <ele>732.3</ele>
      </rtept>
    </rte>
  <rte>
    <name><![CDATA[10 févr. 2019 à 15:06:08]]></name>
    <cmt><![CDATA[10 févr. 2019 à 15:06:08]]></cmt>
    <desc><![CDATA[{DC1}Heure de fin	: 
Durée totale	: 0h00:00
Moyenne globale	: -
Pente moyenne	: 8.03 %
Aire incluse	: 204.0794 ha
Détails par segments
distance  | durée    | vit.moy. | vit.max. | déniv. + | déniv -
   km     | hh:mn:ss |   km/h   |   km/h   |    m     |    m
    12.88 | 00:00:00 |      0.0 |      0.0 |        0 |        0{DC2}]]></desc>
      <rtept lat="45.5509" lon="5.9394">
        <ele>368</ele>
      </rtept>
      <rtept lat="45.55217" lon="5.93791">
        <ele>377</ele>
      </rtept>
    </rte>
  <rte>
    <name><![CDATA[10 févr. 2019 à 14:22:06]]></name>
    <cmt><![CDATA[10 févr. 2019 à 14:22:06]]></cmt>
    <desc><![CDATA[{DC1}Heure de fin	: 00:09:21
Durée totale	: -17690438h37:54
Moyenne globale	: -
Pente moyenne	: 5.62 %
Aire incluse	: 5.7967 ha
Détails par segments
distance  | durée    | vit.moy. | vit.max. | déniv. + | déniv -
   km     | hh:mn:ss |   km/h   |   km/h   |    m     |    m
     3.30 | 00:00:00 |      0.0 |      0.0 |        0 |        0{DC2}]]></desc>
      <rtept lat="45.55169" lon="5.93089">
        <ele>415</ele>
      </rtept>
      <rtept lat="45.5518" lon="5.93905">
        <ele>366</ele>
      </rtept>
    </rte>
  <rte>
    <name><![CDATA[10 févr. 2019 à 09:50:45]]></name>
    <cmt><![CDATA[10 févr. 2019 à 09:50:45]]></cmt>
    <desc><![CDATA[{DC1}Heure de fin	: 00:09:21
Durée totale	: -17690433h09:14
Moyenne globale	: -
Pente moyenne	: 0.00 %
Aire incluse	: 50.7119 ha
Détails par segments
distance  | durée    | vit.moy. | vit.max. | déniv. + | déniv -
   km     | hh:mn:ss |   km/h   |   km/h   |    m     |    m
     4.33 | 00:00:00 |      0.0 |      0.0 |        0 |        0{DC2}]]></desc>
      <rtept lat="45.5503" lon="5.93918">
        <ele>373.6</ele>
      </rtept>
      <rtept lat="45.55191" lon="5.93893">
        <ele>366.7</ele>
      </rtept>
    </rte>
  <rte>
    <name><![CDATA[10 févr. 2019 à 09:07:08]]></name>
    <cmt><![CDATA[10 févr. 2019 à 09:07:08]]></cmt>
    <desc><![CDATA[{DC1}Heure de fin	: 00:09:21
Durée totale	: -17690433h52:52
Moyenne globale	: -
Pente moyenne	: nan %
Aire incluse	: 0.0000 ha
Détails par segments
distance  | durée    | vit.moy. | vit.max. | déniv. + | déniv -
   km     | hh:mn:ss |   km/h   |   km/h   |    m     |    m
     0.00 | 00:00:00 |      0.0 |      0.0 |        0 |        0{DC2}]]></desc>
      <rtept lat="45.55102" lon="5.93919">
        <ele>370.1</ele>
      </rtept>
    </rte>
  <rte>
    <name><![CDATA[10 févr. 2019 à 09:02:25]]></name>
    <cmt><![CDATA[10 févr. 2019 à 09:02:25]]></cmt>
    <desc><![CDATA[{DC1}Heure de fin	: 00:09:21
Durée totale	: -17690433h57:35
Moyenne globale	: -
Pente moyenne	: nan %
Aire incluse	: 0.0000 ha
Détails par segments
distance  | durée    | vit.moy. | vit.max. | déniv. + | déniv -
   km     | hh:mn:ss |   km/h   |   km/h   |    m     |    m
     0.00 | 00:00:00 |      0.0 |      0.0 |        0 |        0{DC2}]]></desc>
      <rtept lat="45.55207" lon="5.93813">
        <ele>375.2</ele>
      </rtept>
    </rte>
  <rte>
    <name><![CDATA[10 févr. 2019 à 09:00:27]]></name>
    <cmt><![CDATA[10 févr. 2019 à 09:00:27]]></cmt>
    <desc><![CDATA[{DC1}Heure de fin	: 00:09:21
Durée totale	: -17690433h59:32
Moyenne globale	: -
Pente moyenne	: nan %
Aire incluse	: 0.0000 ha
Détails par segments
distance  | durée    | vit.moy. | vit.max. | déniv. + | déniv -
   km     | hh:mn:ss |   km/h   |   km/h   |    m     |    m
     0.00 | 00:00:00 |      0.0 |      0.0 |        0 |        0{DC2}]]></desc>
      <rtept lat="45.55244" lon="5.93858">
        <ele>366.6</ele>
      </rtept>
    </rte>
</gpx>